Observation data for Welch on 08/20/2019      Previous  Date       Current Mesonet Observations  Soil Data  Daily Summary Page  Observations in Plain Language
KWE2 200500Z 14006KT 26/16 A3008 RMK A01 T02600157  RH  053%=      5-min Rain = 0
KWE2 200501Z 14006KT 26/16 A3008 RMK A01 T02600157  RH  053%=      5-min Rain = 0
KWE2 200502Z 14006KT 26/16 A3008 RMK A01 T02590157  RH  053%=      5-min Rain = 0
KWE2 200503Z 14006KT 26/16 A3008 RMK A01 T02580157  RH  053%=      5-min Rain = 0
KWE2 200504Z 14006KT 26/16 A3008 RMK A01 T02590158  RH  054%=      5-min Rain = 0
KWE2 200505Z 14006KT 26/16 A3008 RMK A01 T02580157  RH  054%=      5-min Rain = 0
KWE2 200506Z 14006KT 26/16 A3008 RMK A01 T02580158  RH  054%=      5-min Rain = 0
KWE2 200507Z 13006KT 26/16 A3008 RMK A01 T02570158  RH  054%=      5-min Rain = 0
KWE2 200508Z 13007KT 26/16 A3008 RMK A01 T02570157  RH  054%=      5-min Rain = 0
KWE2 200509Z 13006KT 26/16 A3008 RMK A01 T02570157  RH  054%=      5-min Rain = 0
KWE2 200510Z 13006KT 26/16 A3008 RMK A01 T02570157  RH  054%=      5-min Rain = 0
KWE2 200511Z 13006KT 26/16 A3008 RMK A01 T02570157  RH  054%=      5-min Rain = 0
KWE2 200512Z 13006KT 26/16 A3008 RMK A01 T02560157  RH  054%=      5-min Rain = 0
KWE2 200513Z 14006KT 26/16 A3008 RMK A01 T02560157  RH  054%=      5-min Rain = 0
KWE2 200514Z 14006KT 26/16 A3008 RMK A01 T02560157  RH  054%=      5-min Rain = 0
KWE2 200515Z 14006KT 26/16 A3008 RMK A01 T02560158  RH  054%=      5-min Rain = 0
KWE2 200516Z 14006KT 26/16 A3008 RMK A01 T02560158  RH  055%=      5-min Rain = 0
KWE2 200517Z 14006KT 26/16 A3008 RMK A01 T02560158  RH  055%=      5-min Rain = 0
KWE2 200518Z 14006KT 26/16 A3008 RMK A01 T02550158  RH  055%=      5-min Rain = 0
KWE2 200519Z 14006KT 26/16 A3008 RMK A01 T02550158  RH  055%=      5-min Rain = 0
KWE2 200520Z 14006KT 26/16 A3008 RMK A01 T02550158  RH  055%=      5-min Rain = 0
KWE2 200521Z 14006KT 26/16 A3008 RMK A01 T02550158  RH  055%=      5-min Rain = 0
KWE2 200522Z 14006KT 25/16 A3008 RMK A01 T02540158  RH  055%=      5-min Rain = 0
KWE2 200523Z 14006KT 25/16 A3008 RMK A01 T02540158  RH  055%=      5-min Rain = 0
KWE2 200524Z 14006KT 25/16 A3008 RMK A01 T02530158  RH  056%=      5-min Rain = 0
KWE2 200525Z 14006KT 25/16 A3008 RMK A01 T02530158  RH  056%=      5-min Rain = 0
KWE2 200526Z 14007KT 25/16 A3008 RMK A01 T02530158  RH  056%=      5-min Rain = 0
KWE2 200527Z 14007KT 25/16 A3008 RMK A01 T02530158  RH  056%=      5-min Rain = 0
KWE2 200528Z 14007KT 25/16 A3008 RMK A01 T02530159  RH  056%=      5-min Rain = 0
KWE2 200529Z 14007KT 25/16 A3008 RMK A01 T02520158  RH  056%=      5-min Rain = 0
KWE2 200530Z 14007KT 25/16 A3008 RMK A01 T02530159  RH  056%=      5-min Rain = 0
KWE2 200531Z 14007KT 25/16 A3008 RMK A01 T02520158  RH  056%=      5-min Rain = 0
KWE2 200532Z 14007KT 25/16 A3008 RMK A01 T02520158  RH  056%=      5-min Rain = 0
KWE2 200533Z 14007KT 25/16 A3008 RMK A01 T02520158  RH  056%=      5-min Rain = 0
KWE2 200534Z 14007KT 25/16 A3008 RMK A01 T02520158  RH  056%=      5-min Rain = 0
KWE2 200535Z 14006KT 25/16 A3008 RMK A01 T02520158  RH  056%=      5-min Rain = 0
KWE2 200536Z 15006KT 25/16 A3008 RMK A01 T02520158  RH  056%=      5-min Rain = 0
KWE2 200537Z 15006KT 25/16 A3008 RMK A01 T02520158  RH  056%=      5-min Rain = 0
KWE2 200538Z 15006KT 25/16 A3008 RMK A01 T02520158  RH  056%=      5-min Rain = 0
KWE2 200539Z 15006KT 25/16 A3008 RMK A01 T02530158  RH  056%=      5-min Rain = 0
KWE2 200540Z 15006KT 25/16 A3008 RMK A01 T02520157  RH  056%=      5-min Rain = 0
KWE2 200541Z 15006KT 25/16 A3008 RMK A01 T02520158  RH  056%=      5-min Rain = 0
KWE2 200542Z 15006KT 25/16 A3008 RMK A01 T02530158  RH  056%=      5-min Rain = 0
KWE2 200543Z 15006KT 25/16 A3008 RMK A01 T02520157  RH  056%=      5-min Rain = 0
KWE2 200544Z 15006KT 25/16 A3008 RMK A01 T02520157  RH  056%=      5-min Rain = 0
KWE2 200545Z 15006KT 25/16 A3008 RMK A01 T02520157  RH  056%=      5-min Rain = 0
KWE2 200546Z 15005KT 25/16 A3008 RMK A01 T02520158  RH  056%=      5-min Rain = 0
KWE2 200547Z 15006KT 25/16 A3008 RMK A01 T02520158  RH  056%=      5-min Rain = 0
KWE2 200548Z 15006KT 25/16 A3008 RMK A01 T02530158  RH  056%=      5-min Rain = 0
KWE2 200549Z 16006KT 25/16 A3008 RMK A01 T02530158  RH  056%=      5-min Rain = 0
KWE2 200550Z 15006KT 25/16 A3008 RMK A01 T02530158  RH  055%=      5-min Rain = 0
KWE2 200551Z 16006KT 25/16 A3008 RMK A01 T02540158  RH  055%=      5-min Rain = 0
KWE2 200552Z 16006KT 25/16 A3008 RMK A01 T02540158  RH  055%=      5-min Rain = 0
KWE2 200553Z 16006KT 25/16 A3008 RMK A01 T02540158  RH  056%=      5-min Rain = 0
KWE2 200554Z 16006KT 25/16 A3008 RMK A01 T02530158  RH  056%=      5-min Rain = 0
KWE2 200555Z 15006KT 25/16 A3008 RMK A01 T02530159  RH  056%=      5-min Rain = 0
KWE2 200556Z 15006KT 25/16 A3008 RMK A01 T02520159  RH  056%=      5-min Rain = 0
KWE2 200557Z 15006KT 25/16 A3008 RMK A01 T02520159  RH  056%=      5-min Rain = 0
KWE2 200558Z 15007KT 25/16 A3008 RMK A01 T02520159  RH  056%=      5-min Rain = 0
KWE2 200559Z 15007KT 25/16 A3008 RMK A01 T02510159  RH  056%=      5-min Rain = 0
KWE2 200600Z 15007KT 25/16 A3008 RMK A01 T02510159  RH  057%=      5-min Rain = 0
KWE2 200601Z 15007KT 25/16 A3008 RMK A01 T02510158  RH  057%=      5-min Rain = 0
KWE2 200602Z 15007KT 25/16 A3008 RMK A01 T02510158  RH  057%=      5-min Rain = 0
KWE2 200603Z 15007KT 25/16 A3008 RMK A01 T02510159  RH  057%=      5-min Rain = 0
KWE2 200604Z 16007KT 25/16 A3008 RMK A01 T02500158  RH  057%=      5-min Rain = 0
KWE2 200605Z 16007KT 25/16 A3008 RMK A01 T02500158  RH  056%=      5-min Rain = 0
KWE2 200606Z 16007KT 25/16 A3008 RMK A01 T02500157  RH  056%=      5-min Rain = 0
KWE2 200607Z 16007KT 25/16 A3008 RMK A01 T02500158  RH  056%=      5-min Rain = 0
KWE2 200608Z 16007KT 25/16 A3008 RMK A01 T02510158  RH  056%=      5-min Rain = 0
KWE2 200609Z 16007KT 25/16 A3008 RMK A01 T02510158  RH  056%=      5-min Rain = 0
KWE2 200610Z 16007KT 25/16 A3008 RMK A01 T02500158  RH  056%=      5-min Rain = 0
KWE2 200611Z 16007KT 25/16 A3008 RMK A01 T02500158  RH  056%=      5-min Rain = 0
KWE2 200612Z 16007KT 25/16 A3008 RMK A01 T02500158  RH  057%=      5-min Rain = 0
KWE2 200613Z 16007KT 25/16 A3008 RMK A01 T02490157  RH  057%=      5-min Rain = 0
KWE2 200614Z 16007KT 25/16 A3008 RMK A01 T02490157  RH  057%=      5-min Rain = 0
KWE2 200615Z 16007KT 25/16 A3008 RMK A01 T02490157  RH  057%=      5-min Rain = 0
KWE2 200616Z 16007KT 25/16 A3008 RMK A01 T02480157  RH  057%=      5-min Rain = 0
KWE2 200617Z 16007KT 25/16 A3008 RMK A01 T02480157  RH  057%=      5-min Rain = 0
KWE2 200618Z 16007KT 25/16 A3008 RMK A01 T02480157  RH  057%=      5-min Rain = 0
KWE2 200619Z 16007KT 25/16 A3008 RMK A01 T02470157  RH  057%=      5-min Rain = 0
KWE2 200620Z 16007KT 25/16 A3008 RMK A01 T02470156  RH  057%=      5-min Rain = 0
KWE2 200621Z 16006KT 25/16 A3008 RMK A01 T02470157  RH  057%=      5-min Rain = 0
KWE2 200622Z 15007KT 25/16 A3008 RMK A01 T02470157  RH  057%=      5-min Rain = 0
KWE2 200623Z 15006KT 25/16 A3008 RMK A01 T02470156  RH  057%=      5-min Rain = 0
KWE2 200624Z 15007KT 25/16 A3008 RMK A01 T02470156  RH  057%=      5-min Rain = 0
KWE2 200625Z 15007KT 25/16 A3008 RMK A01 T02460156  RH  057%=      5-min Rain = 0
KWE2 200626Z 15007KT 25/16 A3008 RMK A01 T02460156  RH  057%=      5-min Rain = 0
KWE2 200627Z 15007KT 25/16 A3008 RMK A01 T02460156  RH  057%=      5-min Rain = 0
KWE2 200628Z 15007KT 25/16 A3008 RMK A01 T02450156  RH  057%=      5-min Rain = 0
KWE2 200629Z 15007KT 25/16 A3008 RMK A01 T02450156  RH  057%=      5-min Rain = 0
KWE2 200630Z 16007KT 25/16 A3008 RMK A01 T02460156  RH  057%=      5-min Rain = 0
KWE2 200631Z 15007KT 25/16 A3008 RMK A01 T02460155  RH  057%=      5-min Rain = 0
KWE2 200632Z 16007KT 25/16 A3008 RMK A01 T02460155  RH  057%=      5-min Rain = 0
KWE2 200633Z 16007KT 25/16 A3008 RMK A01 T02470155  RH  057%=      5-min Rain = 0
KWE2 200634Z 15007KT 25/16 A3008 RMK A01 T02470156  RH  057%=      5-min Rain = 0
KWE2 200635Z 16007KT 25/16 A3008 RMK A01 T02480156  RH  057%=      5-min Rain = 0
KWE2 200636Z 16007KT 25/16 A3008 RMK A01 T02480156  RH  057%=      5-min Rain = 0
KWE2 200637Z 15007KT 25/16 A3008 RMK A01 T02480155  RH  056%=      5-min Rain = 0
KWE2 200638Z 15007KT 25/16 A3008 RMK A01 T02480156  RH  056%=      5-min Rain = 0
KWE2 200639Z 15007KT 25/16 A3008 RMK A01 T02480156  RH  056%=      5-min Rain = 0
KWE2 200640Z 15007KT 25/16 A3008 RMK A01 T02480156  RH  057%=      5-min Rain = 0
KWE2 200641Z 15006KT 25/16 A3008 RMK A01 T02480156  RH  057%=      5-min Rain = 0
KWE2 200642Z 15006KT 25/16 A3008 RMK A01 T02470156  RH  057%=      5-min Rain = 0
KWE2 200643Z 15006KT 25/16 A3008 RMK A01 T02470156  RH  057%=      5-min Rain = 0
KWE2 200644Z 15006KT 25/16 A3008 RMK A01 T02460156  RH  057%=      5-min Rain = 0
KWE2 200645Z 15006KT 25/16 A3008 RMK A01 T02460156  RH  057%=      5-min Rain = 0
KWE2 200646Z 15006KT 25/16 A3008 RMK A01 T02460156  RH  057%=      5-min Rain = 0
KWE2 200647Z 15006KT 25/16 A3008 RMK A01 T02450155  RH  057%=      5-min Rain = 0
KWE2 200648Z 15006KT 25/16 A3008 RMK A01 T02450155  RH  057%=      5-min Rain = 0
KWE2 200649Z 15005KT 24/16 A3008 RMK A01 T02440155  RH  057%=      5-min Rain = 0
KWE2 200650Z 15006KT 24/16 A3008 RMK A01 T02440155  RH  058%=      5-min Rain = 0
KWE2 200651Z 15005KT 24/16 A3008 RMK A01 T02430155  RH  058%=      5-min Rain = 0
KWE2 200652Z 15006KT 24/16 A3009 RMK A01 T02430155  RH  058%=      5-min Rain = 0
KWE2 200653Z 15006KT 24/16 A3009 RMK A01 T02420155  RH  058%=      5-min Rain = 0
KWE2 200654Z 15006KT 24/16 A3009 RMK A01 T02420155  RH  058%=      5-min Rain = 0
KWE2 200655Z 15006KT 24/16 A3009 RMK A01 T02420155  RH  058%=      5-min Rain = 0
KWE2 200656Z 15005KT 24/16 A3009 RMK A01 T02420155  RH  059%=      5-min Rain = 0
KWE2 200657Z 15005KT 24/16 A3009 RMK A01 T02410156  RH  059%=      5-min Rain = 0
KWE2 200658Z 15005KT 24/16 A3009 RMK A01 T02410156  RH  059%=      5-min Rain = 0
KWE2 200659Z 15006KT 24/16 A3009 RMK A01 T02410156  RH  059%=      5-min Rain = 0
KWE2 200700Z 15005KT 24/16 A3009 RMK A01 T02410157  RH  059%=      5-min Rain = 0
KWE2 200701Z 15006KT 24/16 A3009 RMK A01 T02410157  RH  059%=      5-min Rain = 0
KWE2 200702Z 15006KT 24/16 A3009 RMK A01 T02400157  RH  060%=      5-min Rain = 0
KWE2 200703Z 15005KT 24/16 A3009 RMK A01 T02410158  RH  060%=      5-min Rain = 0
KWE2 200704Z 15005KT 24/16 A3009 RMK A01 T02400157  RH  060%=      5-min Rain = 0
KWE2 200705Z 15005KT 24/16 A3009 RMK A01 T02410158  RH  060%=      5-min Rain = 0
KWE2 200706Z 14005KT 24/16 A3009 RMK A01 T02400157  RH  060%=      5-min Rain = 0
KWE2 200707Z 14005KT 24/16 A3009 RMK A01 T02400158  RH  060%=      5-min Rain = 0
KWE2 200708Z 14005KT 24/16 A3009 RMK A01 T02400158  RH  060%=      5-min Rain = 0
KWE2 200709Z 14005KT 24/16 A3009 RMK A01 T02400157  RH  060%=      5-min Rain = 0
KWE2 200710Z 14005KT 24/16 A3009 RMK A01 T02390158  RH  060%=      5-min Rain = 0
KWE2 200711Z 14005KT 24/16 A3009 RMK A01 T02390157  RH  060%=      5-min Rain = 0
KWE2 200712Z 14005KT 24/16 A3009 RMK A01 T02380157  RH  061%=      5-min Rain = 0
KWE2 200713Z 14006KT 24/16 A3009 RMK A01 T02380158  RH  061%=      5-min Rain = 0
KWE2 200714Z 14005KT 24/16 A3009 RMK A01 T02370158  RH  061%=      5-min Rain = 0
KWE2 200715Z 14005KT 24/16 A3009 RMK A01 T02370158  RH  061%=      5-min Rain = 0
KWE2 200716Z 15005KT 24/16 A3009 RMK A01 T02370158  RH  061%=      5-min Rain = 0
KWE2 200717Z 15005KT 24/16 A3009 RMK A01 T02370158  RH  061%=      5-min Rain = 0
KWE2 200718Z 15005KT 24/16 A3009 RMK A01 T02360158  RH  062%=      5-min Rain = 0
KWE2 200719Z 15005KT 24/16 A3009 RMK A01 T02360158  RH  061%=      5-min Rain = 0
KWE2 200720Z 15005KT 24/16 A3009 RMK A01 T02360158  RH  062%=      5-min Rain = 0
KWE2 200721Z 14005KT 24/16 A3009 RMK A01 T02360158  RH  062%=      5-min Rain = 0
KWE2 200722Z 14005KT 24/16 A3009 RMK A01 T02360158  RH  062%=      5-min Rain = 0
KWE2 200723Z 15005KT 24/16 A3009 RMK A01 T02360158  RH  062%=      5-min Rain = 0
KWE2 200724Z 14005KT 24/16 A3009 RMK A01 T02350158  RH  062%=      5-min Rain = 0
KWE2 200725Z 15005KT 24/16 A3009 RMK A01 T02350158  RH  062%=      5-min Rain = 0
KWE2 200726Z 15004KT 24/16 A3009 RMK A01 T02350158  RH  062%=      5-min Rain = 0
KWE2 200727Z 15004KT 24/16 A3009 RMK A01 T02350159  RH  062%=      5-min Rain = 0
KWE2 200728Z 15004KT 23/16 A3009 RMK A01 T02340158  RH  062%=      5-min Rain = 0
KWE2 200729Z 15004KT 23/16 A3009 RMK A01 T02340159  RH  063%=      5-min Rain = 0
KWE2 200730Z 15004KT 23/16 A3009 RMK A01 T02340159  RH  063%=      5-min Rain = 0
KWE2 200731Z 15004KT 23/16 A3009 RMK A01 T02330159  RH  063%=      5-min Rain = 0
KWE2 200732Z 15004KT 23/16 A3009 RMK A01 T02330159  RH  063%=      5-min Rain = 0
KWE2 200733Z 15005KT 23/16 A3009 RMK A01 T02320159  RH  064%=      5-min Rain = 0
KWE2 200734Z 15004KT 23/16 A3009 RMK A01 T02320159  RH  064%=      5-min Rain = 0
KWE2 200735Z 15005KT 23/16 A3009 RMK A01 T02310160  RH  064%=      5-min Rain = 0
KWE2 200736Z 15005KT 23/16 A3009 RMK A01 T02310160  RH  064%=      5-min Rain = 0
KWE2 200737Z 15005KT 23/16 A3009 RMK A01 T02290159  RH  064%=      5-min Rain = 0
KWE2 200738Z 15005KT 23/16 A3009 RMK A01 T02290159  RH  065%=      5-min Rain = 0
KWE2 200739Z 15005KT 23/16 A3009 RMK A01 T02280159  RH  065%=      5-min Rain = 0
KWE2 200740Z 15005KT 23/16 A3009 RMK A01 T02280159  RH  065%=      5-min Rain = 0
KWE2 200741Z 15005KT 23/16 A3009 RMK A01 T02270160  RH  066%=      5-min Rain = 0
KWE2 200742Z 15005KT 23/16 A3009 RMK A01 T02260160  RH  066%=      5-min Rain = 0
KWE2 200743Z 15006KT 23/16 A3009 RMK A01 T02260160  RH  066%=      5-min Rain = 0
KWE2 200744Z 15005KT 23/16 A3009 RMK A01 T02250160  RH  067%=      5-min Rain = 0
KWE2 200745Z 15005KT 23/16 A3009 RMK A01 T02250160  RH  067%=      5-min Rain = 0
KWE2 200746Z 15006KT 23/16 A3009 RMK A01 T02250160  RH  067%=      5-min Rain = 0
KWE2 200747Z 15006KT 23/16 A3009 RMK A01 T02250161  RH  067%=      5-min Rain = 0
KWE2 200748Z 15006KT 22/16 A3009 RMK A01 T02240161  RH  067%=      5-min Rain = 0
KWE2 200749Z 15005KT 22/16 A3009 RMK A01 T02240160  RH  067%=      5-min Rain = 0
KWE2 200750Z 16005KT 22/16 A3009 RMK A01 T02240161  RH  067%=      5-min Rain = 0
KWE2 200751Z 16005KT 22/16 A3009 RMK A01 T02240161  RH  067%=      5-min Rain = 0
KWE2 200752Z 16006KT 22/16 A3009 RMK A01 T02240161  RH  067%=      5-min Rain = 0
KWE2 200753Z 16006KT 22/16 A3009 RMK A01 T02240161  RH  067%=      5-min Rain = 0
KWE2 200754Z 15006KT 22/16 A3009 RMK A01 T02240161  RH  067%=      5-min Rain = 0
KWE2 200755Z 15006KT 22/16 A3009 RMK A01 T02240161  RH  068%=      5-min Rain = 0
KWE2 200756Z 15006KT 22/16 A3009 RMK A01 T02240161  RH  068%=      5-min Rain = 0
KWE2 200757Z 16006KT 22/16 A3009 RMK A01 T02240161  RH  068%=      5-min Rain = 0
KWE2 200758Z 15006KT 22/16 A3009 RMK A01 T02240161  RH  067%=      5-min Rain = 0
KWE2 200759Z 16006KT 22/16 A3009 RMK A01 T02240161  RH  067%=      5-min Rain = 0
KWE2 200800Z 15006KT 22/16 A3009 RMK A01 T02240161  RH  067%=      5-min Rain = 0
KWE2 200801Z 15006KT 22/16 A3009 RMK A01 T02240161  RH  067%=      5-min Rain = 0
KWE2 200802Z 15006KT 22/16 A3009 RMK A01 T02240161  RH  067%=      5-min Rain = 0
KWE2 200803Z 15006KT 22/16 A3009 RMK A01 T02240161  RH  067%=      5-min Rain = 0
KWE2 200804Z 15006KT 23/16 A3009 RMK A01 T02250161  RH  067%=      5-min Rain = 0
KWE2 200805Z 15007KT 23/16 A3009 RMK A01 T02250161  RH  067%=      5-min Rain = 0
KWE2 200806Z 15007KT 23/16 A3009 RMK A01 T02260161  RH  067%=      5-min Rain = 0
KWE2 200807Z 15007KT 23/16 A3009 RMK A01 T02270161  RH  066%=      5-min Rain = 0
KWE2 200808Z 15008KT 23/16 A3009 RMK A01 T02270161  RH  066%=      5-min Rain = 0
KWE2 200809Z 15008KT 23/16 A3009 RMK A01 T02280161  RH  066%=      5-min Rain = 0
KWE2 200810Z 15008KT 23/16 A3009 RMK A01 T02280160  RH  066%=      5-min Rain = 0
KWE2 200811Z 15008KT 23/16 A3009 RMK A01 T02290160  RH  065%=      5-min Rain = 0
KWE2 200812Z 15008KT 23/16 A3009 RMK A01 T02300160  RH  065%=      5-min Rain = 0
KWE2 200813Z 15007KT 23/16 A3009 RMK A01 T02300160  RH  065%=      5-min Rain = 0
KWE2 200814Z 15008KT 23/16 A3009 RMK A01 T02310160  RH  064%=      5-min Rain = 0
KWE2 200815Z 15008KT 23/16 A3009 RMK A01 T02310160  RH  064%=      5-min Rain = 0
KWE2 200816Z 15008KT 23/16 A3009 RMK A01 T02310160  RH  064%=      5-min Rain = 0
KWE2 200817Z 15008KT 23/16 A3009 RMK A01 T02310160  RH  064%=      5-min Rain = 0
KWE2 200818Z 15008KT 23/16 A3009 RMK A01 T02310160  RH  064%=      5-min Rain = 0
KWE2 200819Z 15008KT 23/16 A3009 RMK A01 T02310159  RH  064%=      5-min Rain = 0
KWE2 200820Z 15007KT 23/16 A3008 RMK A01 T02310160  RH  064%=      5-min Rain = 0
KWE2 200821Z 15008KT 23/16 A3009 RMK A01 T02310159  RH  064%=      5-min Rain = 0
KWE2 200822Z 15007KT 23/16 A3008 RMK A01 T02310159  RH  064%=      5-min Rain = 0
KWE2 200823Z 15007KT 23/16 A3009 RMK A01 T02310159  RH  064%=      5-min Rain = 0
KWE2 200824Z 15008KT 23/16 A3009 RMK A01 T02310159  RH  064%=      5-min Rain = 0
KWE2 200825Z 15008KT 23/16 A3009 RMK A01 T02310159  RH  064%=      5-min Rain = 0
KWE2 200826Z 15007KT 23/16 A3009 RMK A01 T02310159  RH  064%=      5-min Rain = 0
KWE2 200827Z 15007KT 23/16 A3009 RMK A01 T02310159  RH  064%=      5-min Rain = 0
KWE2 200828Z 15008KT 23/16 A3009 RMK A01 T02310159  RH  064%=      5-min Rain = 0
KWE2 200829Z 15007KT 23/16 A3009 RMK A01 T02310159  RH  064%=      5-min Rain = 0
KWE2 200830Z 16007KT 23/16 A3009 RMK A01 T02310159  RH  064%=      5-min Rain = 0
KWE2 200831Z 15007KT 23/16 A3009 RMK A01 T02310159  RH  064%=      5-min Rain = 0
KWE2 200832Z 16007KT 23/16 A3009 RMK A01 T02310159  RH  064%=      5-min Rain = 0
KWE2 200833Z 16008KT 23/16 A3009 RMK A01 T02310159  RH  064%=      5-min Rain = 0
KWE2 200834Z 16007KT 23/16 A3009 RMK A01 T02310158  RH  064%=      5-min Rain = 0
KWE2 200835Z 16007KT 23/16 A3009 RMK A01 T02310158  RH  064%=      5-min Rain = 0
KWE2 200836Z 16007KT 23/16 A3009 RMK A01 T02310158  RH  063%=      5-min Rain = 0
KWE2 200837Z 16006KT 23/16 A3009 RMK A01 T02310158  RH  063%=      5-min Rain = 0
KWE2 200838Z 16006KT 23/16 A3009 RMK A01 T02310157  RH  063%=      5-min Rain = 0
KWE2 200839Z 16007KT 23/16 A3009 RMK A01 T02310157  RH  063%=      5-min Rain = 0
KWE2 200840Z 16006KT 23/16 A3009 RMK A01 T02310157  RH  063%=      5-min Rain = 0
KWE2 200841Z 16006KT 23/16 A3009 RMK A01 T02310157  RH  063%=      5-min Rain = 0
KWE2 200842Z 16006KT 23/16 A3009 RMK A01 T02310157  RH  063%=      5-min Rain = 0
KWE2 200843Z 16006KT 23/16 A3009 RMK A01 T02310156  RH  063%=      5-min Rain = 0
KWE2 200844Z 16006KT 23/16 A3009 RMK A01 T02320156  RH  062%=      5-min Rain = 0
KWE2 200845Z 16006KT 23/16 A3009 RMK A01 T02320156  RH  062%=      5-min Rain = 0
KWE2 200846Z 16006KT 23/16 A3009 RMK A01 T02320155  RH  062%=      5-min Rain = 0
KWE2 200847Z 16006KT 23/16 A3009 RMK A01 T02320156  RH  062%=      5-min Rain = 0
KWE2 200848Z 16006KT 23/16 A3009 RMK A01 T02320155  RH  062%=      5-min Rain = 0
KWE2 200849Z 17005KT 23/16 A3009 RMK A01 T02330155  RH  061%=      5-min Rain = 0
KWE2 200850Z 17005KT 23/15 A3009 RMK A01 T02330154  RH  061%=      5-min Rain = 0
KWE2 200851Z 17005KT 23/15 A3009 RMK A01 T02330154  RH  061%=      5-min Rain = 0
KWE2 200852Z 17006KT 23/15 A3009 RMK A01 T02330153  RH  061%=      5-min Rain = 0
KWE2 200853Z 17005KT 23/15 A3009 RMK A01 T02330153  RH  061%=      5-min Rain = 0
KWE2 200854Z 17006KT 23/15 A3009 RMK A01 T02340153  RH  060%=      5-min Rain = 0
KWE2 200855Z 17006KT 23/15 A3009 RMK A01 T02340152  RH  060%=      5-min Rain = 0
KWE2 200856Z 17006KT 23/15 A3009 RMK A01 T02340152  RH  060%=      5-min Rain = 0
KWE2 200857Z 17006KT 23/15 A3009 RMK A01 T02340152  RH  060%=      5-min Rain = 0
KWE2 200858Z 18005KT 23/15 A3009 RMK A01 T02340152  RH  060%=      5-min Rain = 0
KWE2 200859Z 17005KT 23/15 A3009 RMK A01 T02340152  RH  060%=      5-min Rain = 0
KWE2 200900Z 17006KT 23/15 A3009 RMK A01 T02340152  RH  060%=      5-min Rain = 0
KWE2 200901Z 17006KT 23/15 A3009 RMK A01 T02340152  RH  060%=      5-min Rain = 0
KWE2 200902Z 17005KT 23/15 A3009 RMK A01 T02340152  RH  060%=      5-min Rain = 0
KWE2 200903Z 17005KT 23/15 A3009 RMK A01 T02330152  RH  060%=      5-min Rain = 0
KWE2 200904Z 17005KT 23/15 A3009 RMK A01 T02320152  RH  060%=      5-min Rain = 0
KWE2 200905Z 17005KT 23/15 A3009 RMK A01 T02320152  RH  061%=      5-min Rain = 0
KWE2 200906Z 17005KT 23/15 A3009 RMK A01 T02310151  RH  061%=      5-min Rain = 0
KWE2 200907Z 18005KT 23/15 A3009 RMK A01 T02310151  RH  061%=      5-min Rain = 0
KWE2 200908Z 18005KT 23/15 A301 RMK A01 T02300151  RH  061%=      5-min Rain = 0
KWE2 200909Z 18005KT 23/15 A301 RMK A01 T02310151  RH  061%=      5-min Rain = 0
KWE2 200910Z 18004KT 23/15 A301 RMK A01 T02300151  RH  061%=      5-min Rain = 0
KWE2 200911Z 18004KT 23/15 A301 RMK A01 T02290151  RH  061%=      5-min Rain = 0
KWE2 200912Z 18004KT 23/15 A301 RMK A01 T02290151  RH  061%=      5-min Rain = 0
KWE2 200913Z 18004KT 23/15 A301 RMK A01 T02290151  RH  061%=      5-min Rain = 0
KWE2 200914Z 18004KT 23/15 A301 RMK A01 T02280151  RH  062%=      5-min Rain = 0
KWE2 200915Z 18005KT 23/15 A301 RMK A01 T02280151  RH  062%=      5-min Rain = 0
KWE2 200916Z 18004KT 23/15 A301 RMK A01 T02270151  RH  062%=      5-min Rain = 0
KWE2 200917Z 18005KT 23/15 A301 RMK A01 T02270152  RH  062%=      5-min Rain = 0
KWE2 200918Z 18005KT 23/15 A301 RMK A01 T02270151  RH  062%=      5-min Rain = 0
KWE2 200919Z 17005KT 23/15 A301 RMK A01 T02270152  RH  063%=      5-min Rain = 0
KWE2 200920Z 17005KT 23/15 A301 RMK A01 T02260151  RH  063%=      5-min Rain = 0
KWE2 200921Z 17006KT 23/15 A301 RMK A01 T02260151  RH  062%=      5-min Rain = 0
KWE2 200922Z 17006KT 23/15 A301 RMK A01 T02260151  RH  062%=      5-min Rain = 0
KWE2 200923Z 17006KT 23/15 A301 RMK A01 T02260151  RH  062%=      5-min Rain = 0
KWE2 200924Z 17005KT 23/15 A301 RMK A01 T02260150  RH  062%=      5-min Rain = 0
KWE2 200925Z 17006KT 23/15 A301 RMK A01 T02250150  RH  062%=      5-min Rain = 0
KWE2 200926Z 17006KT 23/15 A301 RMK A01 T02250150  RH  063%=      5-min Rain = 0
KWE2 200927Z 17006KT 22/15 A301 RMK A01 T02240150  RH  063%=      5-min Rain = 0
KWE2 200928Z 17005KT 22/15 A301 RMK A01 T02240149  RH  063%=      5-min Rain = 0
KWE2 200929Z 17006KT 22/15 A301 RMK A01 T02240149  RH  063%=      5-min Rain = 0
KWE2 200930Z 17005KT 22/15 A301 RMK A01 T02230149  RH  063%=      5-min Rain = 0
KWE2 200931Z 17006KT 22/15 A301 RMK A01 T02240149  RH  063%=      5-min Rain = 0
KWE2 200932Z 17005KT 22/15 A301 RMK A01 T02230149  RH  063%=      5-min Rain = 0
KWE2 200933Z 17006KT 22/15 A301 RMK A01 T02230149  RH  063%=      5-min Rain = 0
KWE2 200934Z 17005KT 22/15 A301 RMK A01 T02220149  RH  063%=      5-min Rain = 0
KWE2 200935Z 17006KT 22/15 A301 RMK A01 T02230149  RH  063%=      5-min Rain = 0
KWE2 200936Z 17006KT 22/15 A301 RMK A01 T02220149  RH  063%=      5-min Rain = 0
KWE2 200937Z 17006KT 22/15 A301 RMK A01 T02220149  RH  063%=      5-min Rain = 0
KWE2 200938Z 17006KT 22/15 A301 RMK A01 T02220149  RH  063%=      5-min Rain = 0
KWE2 200939Z 17006KT 22/15 A301 RMK A01 T02220149  RH  063%=      5-min Rain = 0
KWE2 200940Z 17006KT 22/15 A301 RMK A01 T02220148  RH  063%=      5-min Rain = 0
KWE2 200941Z 17006KT 22/15 A301 RMK A01 T02220148  RH  063%=      5-min Rain = 0
KWE2 200942Z 17006KT 22/15 A301 RMK A01 T02220148  RH  063%=      5-min Rain = 0
KWE2 200943Z 17006KT 22/15 A301 RMK A01 T02220148  RH  063%=      5-min Rain = 0
KWE2 200944Z 17006KT 22/15 A301 RMK A01 T02220149  RH  063%=      5-min Rain = 0
KWE2 200945Z 17006KT 22/15 A301 RMK A01 T02210149  RH  063%=      5-min Rain = 0
KWE2 200946Z 17006KT 22/15 A301 RMK A01 T02210149  RH  064%=      5-min Rain = 0
KWE2 200947Z 17006KT 22/15 A301 RMK A01 T02200149  RH  064%=      5-min Rain = 0
KWE2 200948Z 17006KT 22/15 A301 RMK A01 T02200149  RH  064%=      5-min Rain = 0
KWE2 200949Z 17006KT 22/15 A301 RMK A01 T02200149  RH  064%=      5-min Rain = 0
KWE2 200950Z 17006KT 22/15 A301 RMK A01 T02200149  RH  064%=      5-min Rain = 0
KWE2 200951Z 17006KT 22/15 A301 RMK A01 T02190149  RH  064%=      5-min Rain = 0
KWE2 200952Z 17006KT 22/15 A301 RMK A01 T02180148  RH  064%=      5-min Rain = 0
KWE2 200953Z 17006KT 22/15 A301 RMK A01 T02180148  RH  064%=      5-min Rain = 0
KWE2 200954Z 17006KT 22/15 A301 RMK A01 T02180149  RH  065%=      5-min Rain = 0
KWE2 200955Z 17006KT 22/15 A301 RMK A01 T02180149  RH  065%=      5-min Rain = 0
KWE2 200956Z 17006KT 22/15 A301 RMK A01 T02180149  RH  065%=      5-min Rain = 0
KWE2 200957Z 17006KT 22/15 A301 RMK A01 T02180149  RH  065%=      5-min Rain = 0
KWE2 200958Z 17006KT 22/15 A301 RMK A01 T02180149  RH  065%=      5-min Rain = 0
KWE2 200959Z 17006KT 22/15 A301 RMK A01 T02180149  RH  065%=      5-min Rain = 0
KWE2 201000Z 17006KT 22/15 A301 RMK A01 T02170149  RH  065%=      5-min Rain = 0
KWE2 201001Z 17007KT 22/15 A301 RMK A01 T02170149  RH  065%=      5-min Rain = 0
KWE2 201002Z 17007KT 22/15 A301 RMK A01 T02170149  RH  065%=      5-min Rain = 0
KWE2 201003Z 17007KT 22/15 A301 RMK A01 T02160149  RH  066%=      5-min Rain = 0
KWE2 201004Z 18007KT 22/15 A301 RMK A01 T02160149  RH  066%=      5-min Rain = 0
KWE2 201005Z 18007KT 22/15 A301 RMK A01 T02160149  RH  066%=      5-min Rain = 0
KWE2 201006Z 18007KT 22/15 A301 RMK A01 T02160149  RH  066%=      5-min Rain = 0
KWE2 201007Z 18007KT 22/15 A301 RMK A01 T02150149  RH  066%=      5-min Rain = 0
KWE2 201008Z 18007KT 22/15 A301 RMK A01 T02150149  RH  066%=      5-min Rain = 0
KWE2 201009Z 18007KT 22/15 A301 RMK A01 T02150149  RH  066%=      5-min Rain = 0
KWE2 201010Z 17007KT 22/15 A301 RMK A01 T02150150  RH  066%=      5-min Rain = 0
KWE2 201011Z 17007KT 22/15 A301 RMK A01 T02150149  RH  066%=      5-min Rain = 0
KWE2 201012Z 17007KT 22/15 A301 RMK A01 T02150149  RH  066%=      5-min Rain = 0
KWE2 201013Z 17007KT 22/15 A301 RMK A01 T02150149  RH  066%=      5-min Rain = 0
KWE2 201014Z 17007KT 22/15 A301 RMK A01 T02150150  RH  066%=      5-min Rain = 0
KWE2 201015Z 17007KT 22/15 A301 RMK A01 T02150150  RH  066%=      5-min Rain = 0
KWE2 201016Z 17007KT 22/15 A301 RMK A01 T02160150  RH  066%=      5-min Rain = 0
KWE2 201017Z 17007KT 22/15 A301 RMK A01 T02160150  RH  066%=      5-min Rain = 0
KWE2 201018Z 17007KT 22/15 A301 RMK A01 T02170150  RH  066%=      5-min Rain = 0
KWE2 201019Z 17007KT 22/15 A301 RMK A01 T02170150  RH  066%=      5-min Rain = 0
KWE2 201020Z 17007KT 22/15 A301 RMK A01 T02170150  RH  066%=      5-min Rain = 0
KWE2 201021Z 17007KT 22/15 A301 RMK A01 T02180150  RH  066%=      5-min Rain = 0
KWE2 201022Z 17008KT 22/15 A301 RMK A01 T02180151  RH  065%=      5-min Rain = 0
KWE2 201023Z 17007KT 22/15 A301 RMK A01 T02180150  RH  065%=      5-min Rain = 0
KWE2 201024Z 17007KT 22/15 A301 RMK A01 T02190151  RH  065%=      5-min Rain = 0
KWE2 201025Z 17007KT 22/15 A301 RMK A01 T02190150  RH  065%=      5-min Rain = 0
KWE2 201026Z 17008KT 22/15 A301 RMK A01 T02190151  RH  065%=      5-min Rain = 0
KWE2 201027Z 17007KT 22/15 A301 RMK A01 T02190151  RH  065%=      5-min Rain = 0
KWE2 201028Z 17007KT 22/15 A301 RMK A01 T02190151  RH  065%=      5-min Rain = 0
KWE2 201029Z 17008KT 22/15 A301 RMK A01 T02190151  RH  065%=      5-min Rain = 0
KWE2 201030Z 17007KT 22/15 A301 RMK A01 T02190151  RH  065%=      5-min Rain = 0
KWE2 201031Z 17007KT 22/15 A301 RMK A01 T02190151  RH  065%=      5-min Rain = 0
KWE2 201032Z 17007KT 22/15 A301 RMK A01 T02190152  RH  065%=      5-min Rain = 0
KWE2 201033Z 17007KT 22/15 A301 RMK A01 T02190152  RH  065%=      5-min Rain = 0
KWE2 201034Z 17007KT 22/15 A301 RMK A01 T02190151  RH  065%=      5-min Rain = 0
KWE2 201035Z 17007KT 22/15 A301 RMK A01 T02190152  RH  066%=      5-min Rain = 0
KWE2 201036Z 17007KT 22/15 A301 RMK A01 T02190152  RH  066%=      5-min Rain = 0
KWE2 201037Z 17007KT 22/15 A301 RMK A01 T02190152  RH  066%=      5-min Rain = 0
KWE2 201038Z 17007KT 22/15 A301 RMK A01 T02190152  RH  066%=      5-min Rain = 0
KWE2 201039Z 17007KT 22/15 A301 RMK A01 T02180152  RH  066%=      5-min Rain = 0
KWE2 201040Z 17007KT 22/15 A301 RMK A01 T02190152  RH  066%=      5-min Rain = 0
KWE2 201041Z 17007KT 22/15 A301 RMK A01 T02180152  RH  066%=      5-min Rain = 0
KWE2 201042Z 17007KT 22/15 A301 RMK A01 T02180152  RH  066%=      5-min Rain = 0
KWE2 201043Z 17007KT 22/15 A301 RMK A01 T02180151  RH  066%=      5-min Rain = 0
KWE2 201044Z 17007KT 22/15 A301 RMK A01 T02180151  RH  066%=      5-min Rain = 0
KWE2 201045Z 17007KT 22/15 A301 RMK A01 T02180151  RH  066%=      5-min Rain = 0
KWE2 201046Z 17007KT 22/15 A301 RMK A01 T02180152  RH  066%=      5-min Rain = 0
KWE2 201047Z 17007KT 22/15 A301 RMK A01 T02180152  RH  066%=      5-min Rain = 0
KWE2 201048Z 18007KT 22/15 A301 RMK A01 T02180151  RH  066%=      5-min Rain = 0
KWE2 201049Z 18007KT 22/15 A301 RMK A01 T02180152  RH  066%=      5-min Rain = 0
KWE2 201050Z 18007KT 22/15 A301 RMK A01 T02180152  RH  066%=      5-min Rain = 0
KWE2 201051Z 18007KT 22/15 A301 RMK A01 T02180151  RH  066%=      5-min Rain = 0
KWE2 201052Z 18007KT 22/15 A301 RMK A01 T02180152  RH  066%=      5-min Rain = 0
KWE2 201053Z 18007KT 22/15 A301 RMK A01 T02180152  RH  066%=      5-min Rain = 0
KWE2 201054Z 18007KT 22/15 A301 RMK A01 T02180151  RH  066%=      5-min Rain = 0
KWE2 201055Z 18007KT 22/15 A301 RMK A01 T02180152  RH  066%=      5-min Rain = 0
KWE2 201056Z 18007KT 22/15 A301 RMK A01 T02180152  RH  066%=      5-min Rain = 0
KWE2 201057Z 18007KT 22/15 A301 RMK A01 T02180152  RH  066%=      5-min Rain = 0
KWE2 201058Z 17007KT 22/15 A301 RMK A01 T02180152  RH  066%=      5-min Rain = 0
KWE2 201059Z 18007KT 22/15 A301 RMK A01 T02170152  RH  066%=      5-min Rain = 0
KWE2 201100Z 17007KT 22/15 A301 RMK A01 T02170152  RH  066%=      5-min Rain = 0
KWE2 201101Z 18007KT 22/15 A301 RMK A01 T02170152  RH  066%=      5-min Rain = 0
KWE2 201102Z 17007KT 22/15 A301 RMK A01 T02170152  RH  066%=      5-min Rain = 0
KWE2 201103Z 18007KT 22/15 A301 RMK A01 T02170152  RH  066%=      5-min Rain = 0
KWE2 201104Z 18007KT 22/15 A301 RMK A01 T02170152  RH  067%=      5-min Rain = 0
KWE2 201105Z 18007KT 22/15 A301 RMK A01 T02170152  RH  067%=      5-min Rain = 0
KWE2 201106Z 18007KT 22/15 A301 RMK A01 T02170152  RH  067%=      5-min Rain = 0
KWE2 201107Z 18007KT 22/15 A301 RMK A01 T02170152  RH  067%=      5-min Rain = 0
KWE2 201108Z 18007KT 22/15 A301 RMK A01 T02170152  RH  067%=      5-min Rain = 0
KWE2 201109Z 17007KT 22/15 A301 RMK A01 T02160152  RH  067%=      5-min Rain = 0
KWE2 201110Z 18007KT 22/15 A301 RMK A01 T02160152  RH  067%=      5-min Rain = 0
KWE2 201111Z 18007KT 22/15 A301 RMK A01 T02160151  RH  067%=      5-min Rain = 0
KWE2 201112Z 18007KT 22/15 A301 RMK A01 T02160151  RH  067%=      5-min Rain = 0
KWE2 201113Z 18007KT 22/15 A301 RMK A01 T02160151  RH  067%=      5-min Rain = 0
KWE2 201114Z 18007KT 22/15 A301 RMK A01 T02160151  RH  067%=      5-min Rain = 0
KWE2 201115Z 18007KT 22/15 A301 RMK A01 T02160151  RH  067%=      5-min Rain = 0
KWE2 201116Z 18007KT 22/15 A301 RMK A01 T02160151  RH  067%=      5-min Rain = 0
KWE2 201117Z 18007KT 22/15 A301 RMK A01 T02160151  RH  067%=      5-min Rain = 0
KWE2 201118Z 17007KT 22/15 A301 RMK A01 T02150151  RH  067%=      5-min Rain = 0
KWE2 201119Z 17007KT 22/15 A301 RMK A01 T02160151  RH  067%=      5-min Rain = 0
KWE2 201120Z 17007KT 22/15 A301 RMK A01 T02160151  RH  067%=      5-min Rain = 0
KWE2 201121Z 17007KT 22/15 A301 RMK A01 T02160151  RH  067%=      5-min Rain = 0
KWE2 201122Z 17006KT 22/15 A301 RMK A01 T02150151  RH  067%=      5-min Rain = 0
KWE2 201123Z 17007KT 22/15 A301 RMK A01 T02150151  RH  067%=      5-min Rain = 0
KWE2 201124Z 17007KT 22/15 A301 RMK A01 T02150151  RH  067%=      5-min Rain = 0
KWE2 201125Z 17007KT 21/15 A3011 RMK A01 T02140151  RH  067%=      5-min Rain = 0
KWE2 201126Z 17007KT 21/15 A3011 RMK A01 T02140151  RH  067%=      5-min Rain = 0
KWE2 201127Z 17007KT 21/15 A3011 RMK A01 T02140151  RH  067%=      5-min Rain = 0
KWE2 201128Z 17007KT 21/15 A301 RMK A01 T02140151  RH  067%=      5-min Rain = 0
KWE2 201129Z 17007KT 21/15 A301 RMK A01 T02140151  RH  067%=      5-min Rain = 0
KWE2 201130Z 17007KT 21/15 A3011 RMK A01 T02140151  RH  067%=      5-min Rain = 0
KWE2 201131Z 17007KT 21/15 A3011 RMK A01 T02140152  RH  067%=      5-min Rain = 0
KWE2 201132Z 17007KT 21/15 A3011 RMK A01 T02140152  RH  067%=      5-min Rain = 0
KWE2 201133Z 17007KT 21/15 A3011 RMK A01 T02140152  RH  068%=      5-min Rain = 0
KWE2 201134Z 17007KT 21/15 A3011 RMK A01 T02140152  RH  068%=      5-min Rain = 0
KWE2 201135Z 17007KT 21/15 A3011 RMK A01 T02140152  RH  068%=      5-min Rain = 0
KWE2 201136Z 17007KT 21/15 A3011 RMK A01 T02130152  RH  068%=      5-min Rain = 0
KWE2 201137Z 16007KT 21/15 A3011 RMK A01 T02130152  RH  068%=      5-min Rain = 0
KWE2 201138Z 17007KT 21/15 A3011 RMK A01 T02130152  RH  068%=      5-min Rain = 0
KWE2 201139Z 16007KT 21/15 A3011 RMK A01 T02130152  RH  068%=      5-min Rain = 0
KWE2 201140Z 16007KT 21/15 A3011 RMK A01 T02140152  RH  068%=      5-min Rain = 0
KWE2 201141Z 16007KT 21/15 A3011 RMK A01 T02140152  RH  068%=      5-min Rain = 0
KWE2 201142Z 16007KT 21/15 A3011 RMK A01 T02140152  RH  067%=      5-min Rain = 0
KWE2 201143Z 16007KT 22/15 A3011 RMK A01 T02150152  RH  067%=      5-min Rain = 0
KWE2 201144Z 16008KT 22/15 A3011 RMK A01 T02150151  RH  067%=      5-min Rain = 0
KWE2 201145Z 16007KT 22/15 A3011 RMK A01 T02150151  RH  067%=      5-min Rain = 0
KWE2 201146Z 16008KT 22/15 A3011 RMK A01 T02160151  RH  067%=      5-min Rain = 0
KWE2 201147Z 17008KT 22/15 A3011 RMK A01 T02160151  RH  067%=      5-min Rain = 0
KWE2 201148Z 16007KT 22/15 A3011 RMK A01 T02160151  RH  067%=      5-min Rain = 0
KWE2 201149Z 16007KT 22/15 A3011 RMK A01 T02160151  RH  066%=      5-min Rain = 0
KWE2 201150Z 16007KT 22/15 A3011 RMK A01 T02160151  RH  066%=      5-min Rain = 0
KWE2 201151Z 17007KT 22/15 A3011 RMK A01 T02160151  RH  066%=      5-min Rain = 0
KWE2 201152Z 16007KT 22/15 A3011 RMK A01 T02160151  RH  066%=      5-min Rain = 0
KWE2 201153Z 16006KT 22/15 A3011 RMK A01 T02160152  RH  067%=      5-min Rain = 0
KWE2 201154Z 16006KT 22/15 A3011 RMK A01 T02150152  RH  067%=      5-min Rain = 0
KWE2 201155Z 16007KT 22/15 A3011 RMK A01 T02150152  RH  067%=      5-min Rain = 0
KWE2 201156Z 16007KT 22/15 A3011 RMK A01 T02150152  RH  067%=      5-min Rain = 0
KWE2 201157Z 16006KT 21/15 A3011 RMK A01 T02140152  RH  067%=      5-min Rain = 0
KWE2 201158Z 16007KT 21/15 A3011 RMK A01 T02140152  RH  068%=      5-min Rain = 0
KWE2 201159Z 16007KT 21/15 A3011 RMK A01 T02140152  RH  068%=      5-min Rain = 0
KWE2 201200Z 16007KT 21/15 A3011 RMK A01 T02130152  RH  068%=      5-min Rain = 0
KWE2 201201Z 16007KT 21/15 A3011 RMK A01 T02130151  RH  068%=      5-min Rain = 0
KWE2 201202Z 16007KT 21/15 A3011 RMK A01 T02130151  RH  068%=      5-min Rain = 0
KWE2 201203Z 16006KT 21/15 A3011 RMK A01 T02120151  RH  068%=      5-min Rain = 0
KWE2 201204Z 16006KT 21/15 A3011 RMK A01 T02130152  RH  068%=      5-min Rain = 0
KWE2 201205Z 16007KT 21/15 A3011 RMK A01 T02120151  RH  068%=      5-min Rain = 0
KWE2 201206Z 16006KT 21/15 A3011 RMK A01 T02120151  RH  068%=      5-min Rain = 0
KWE2 201207Z 16006KT 21/15 A3011 RMK A01 T02110151  RH  069%=      5-min Rain = 0
KWE2 201208Z 15006KT 21/15 A3011 RMK A01 T02110151  RH  069%=      5-min Rain = 0
KWE2 201209Z 15006KT 21/15 A3011 RMK A01 T02110151  RH  069%=      5-min Rain = 0
KWE2 201210Z 15006KT 21/15 A3011 RMK A01 T02100151  RH  069%=      5-min Rain = 0
KWE2 201211Z 16006KT 21/15 A3011 RMK A01 T02100151  RH  069%=      5-min Rain = 0
KWE2 201212Z 16006KT 21/15 A3011 RMK A01 T02090151  RH  069%=      5-min Rain = 0
KWE2 201213Z 16006KT 21/15 A3011 RMK A01 T02090152  RH  070%=      5-min Rain = 0
KWE2 201214Z 16006KT 21/15 A3011 RMK A01 T02090152  RH  070%=      5-min Rain = 0
KWE2 201215Z 16006KT 21/15 A3011 RMK A01 T02080151  RH  070%=      5-min Rain = 0
KWE2 201216Z 16006KT 21/15 A3011 RMK A01 T02080152  RH  070%=      5-min Rain = 0
KWE2 201217Z 16006KT 21/15 A3011 RMK A01 T02080152  RH  070%=      5-min Rain = 0
KWE2 201218Z 17005KT 21/15 A3011 RMK A01 T02080152  RH  070%=      5-min Rain = 0
KWE2 201219Z 17005KT 21/15 A3011 RMK A01 T02080152  RH  070%=      5-min Rain = 0
KWE2 201220Z 17005KT 21/15 A3011 RMK A01 T02080151  RH  070%=      5-min Rain = 0
KWE2 201221Z 17005KT 21/15 A3011 RMK A01 T02070151  RH  070%=      5-min Rain = 0
KWE2 201222Z 17005KT 21/15 A3012 RMK A01 T02060151  RH  070%=      5-min Rain = 0
KWE2 201223Z 17005KT 21/15 A3012 RMK A01 T02060150  RH  070%=      5-min Rain = 0
KWE2 201224Z 17005KT 21/15 A3012 RMK A01 T02050150  RH  071%=      5-min Rain = 0
KWE2 201225Z 17005KT 21/15 A3012 RMK A01 T02050151  RH  071%=      5-min Rain = 0
KWE2 201226Z 17005KT 21/15 A3012 RMK A01 T02050151  RH  071%=      5-min Rain = 0
KWE2 201227Z 17005KT 21/15 A3012 RMK A01 T02050151  RH  071%=      5-min Rain = 0
KWE2 201228Z 17005KT 20/15 A3012 RMK A01 T02040151  RH  071%=      5-min Rain = 0
KWE2 201229Z 16005KT 20/15 A3012 RMK A01 T02030151  RH  072%=      5-min Rain = 0
KWE2 201230Z 16005KT 20/15 A3012 RMK A01 T02030151  RH  072%=      5-min Rain = 0
KWE2 201231Z 16005KT 20/15 A3012 RMK A01 T02030151  RH  072%=      5-min Rain = 0
KWE2 201232Z 16005KT 20/15 A3012 RMK A01 T02030151  RH  072%=      5-min Rain = 0
KWE2 201233Z 16005KT 20/15 A3012 RMK A01 T02030151  RH  072%=      5-min Rain = 0
KWE2 201234Z 16005KT 20/15 A3012 RMK A01 T02030151  RH  072%=      5-min Rain = 0
KWE2 201235Z 16006KT 20/15 A3012 RMK A01 T02040151  RH  072%=      5-min Rain = 0
KWE2 201236Z 16006KT 20/15 A3012 RMK A01 T02040152  RH  072%=      5-min Rain = 0
KWE2 201237Z 16006KT 21/15 A3012 RMK A01 T02050152  RH  072%=      5-min Rain = 0
KWE2 201238Z 16006KT 21/15 A3012 RMK A01 T02050153  RH  072%=      5-min Rain = 0
KWE2 201239Z 16005KT 21/15 A3012 RMK A01 T02060153  RH  072%=      5-min Rain = 0
KWE2 201240Z 16006KT 21/15 A3012 RMK A01 T02060153  RH  072%=      5-min Rain = 0
KWE2 201241Z 16005KT 21/15 A3012 RMK A01 T02070154  RH  071%=      5-min Rain = 0
KWE2 201242Z 16006KT 21/15 A3012 RMK A01 T02080154  RH  071%=      5-min Rain = 0
KWE2 201243Z 16006KT 21/15 A3012 RMK A01 T02090154  RH  071%=      5-min Rain = 0
KWE2 201244Z 16006KT 21/16 A3012 RMK A01 T02090155  RH  071%=      5-min Rain = 0
KWE2 201245Z 16006KT 21/16 A3012 RMK A01 T02100155  RH  071%=      5-min Rain = 0
KWE2 201246Z 17006KT 21/16 A3012 RMK A01 T02100155  RH  071%=      5-min Rain = 0
KWE2 201247Z 17006KT 21/16 A3012 RMK A01 T02110155  RH  070%=      5-min Rain = 0
KWE2 201248Z 17006KT 21/16 A3012 RMK A01 T02120155  RH  070%=      5-min Rain = 0
KWE2 201249Z 17006KT 21/16 A3012 RMK A01 T02130155  RH  070%=      5-min Rain = 0
KWE2 201250Z 17006KT 21/16 A3012 RMK A01 T02130156  RH  070%=      5-min Rain = 0
KWE2 201251Z 17006KT 21/16 A3012 RMK A01 T02140156  RH  070%=      5-min Rain = 0
KWE2 201252Z 17006KT 21/16 A3012 RMK A01 T02140156  RH  069%=      5-min Rain = 0
KWE2 201253Z 17005KT 22/16 A3012 RMK A01 T02150157  RH  069%=      5-min Rain = 0
KWE2 201254Z 18005KT 22/16 A3012 RMK A01 T02160157  RH  069%=      5-min Rain = 0
KWE2 201255Z 18005KT 22/16 A3012 RMK A01 T02160157  RH  069%=      5-min Rain = 0
KWE2 201256Z 18005KT 22/16 A3012 RMK A01 T02170158  RH  069%=      5-min Rain = 0
KWE2 201257Z 18004KT 22/16 A3012 RMK A01 T02180158  RH  069%=      5-min Rain = 0
KWE2 201258Z 19004KT 22/16 A3012 RMK A01 T02190158  RH  068%=      5-min Rain = 0
KWE2 201259Z 19004KT 22/16 A3012 RMK A01 T02200159  RH  068%=      5-min Rain = 0
KWE2 201300Z 18004KT 22/16 A3012 RMK A01 T02200159  RH  068%=      5-min Rain = 0
KWE2 201301Z 19004KT 22/16 A3012 RMK A01 T02210159  RH  068%=      5-min Rain = 0
KWE2 201302Z 19004KT 22/16 A3012 RMK A01 T02210159  RH  068%=      5-min Rain = 0
KWE2 201303Z 18003KT 22/16 A3012 RMK A01 T02220160  RH  068%=      5-min Rain = 0
KWE2 201304Z 19004KT 22/16 A3012 RMK A01 T02220160  RH  068%=      5-min Rain = 0
KWE2 201305Z 19003KT 22/16 A3012 RMK A01 T02230161  RH  068%=      5-min Rain = 0
KWE2 201306Z 19003KT 22/16 A3012 RMK A01 T02230162  RH  068%=      5-min Rain = 0
KWE2 201307Z 19003KT 22/16 A3012 RMK A01 T02230162  RH  068%=      5-min Rain = 0
KWE2 201308Z 19002KT 22/16 A3012 RMK A01 T02240162  RH  068%=      5-min Rain = 0
KWE2 201309Z 18003KT 22/16 A3012 RMK A01 T02240162  RH  068%=      5-min Rain = 0
KWE2 201310Z 19003KT 22/16 A3013 RMK A01 T02240163  RH  068%=      5-min Rain = 0
KWE2 201311Z 19003KT 23/16 A3013 RMK A01 T02250164  RH  068%=      5-min Rain = 0
KWE2 201312Z 18003KT 23/16 A3013 RMK A01 T02260164  RH  068%=      5-min Rain = 0
KWE2 201313Z 19003KT 23/17 A3013 RMK A01 T02270166  RH  068%=      5-min Rain = 0
KWE2 201314Z 19003KT 23/17 A3013 RMK A01 T02280165  RH  068%=      5-min Rain = 0
KWE2 201315Z 19003KT 23/17 A3013 RMK A01 T02290166  RH  068%=      5-min Rain = 0
KWE2 201316Z 19004KT 23/17 A3013 RMK A01 T02290165  RH  067%=      5-min Rain = 0
KWE2 201317Z 19003KT 23/17 A3013 RMK A01 T02300165  RH  067%=      5-min Rain = 0
KWE2 201318Z 19003KT 23/17 A3013 RMK A01 T02310167  RH  067%=      5-min Rain = 0
KWE2 201319Z 20003KT 23/17 A3013 RMK A01 T02320165  RH  066%=      5-min Rain = 0
KWE2 201320Z 19003KT 23/17 A3013 RMK A01 T02330167  RH  066%=      5-min Rain = 0
KWE2 201321Z 20004KT 23/17 A3013 RMK A01 T02330167  RH  066%=      5-min Rain = 0
KWE2 201322Z 20003KT 23/17 A3013 RMK A01 T02340166  RH  066%=      5-min Rain = 0
KWE2 201323Z 20004KT 23/17 A3013 RMK A01 T02340166  RH  066%=      5-min Rain = 0
KWE2 201324Z 21003KT 24/17 A3013 RMK A01 T02350167  RH  065%=      5-min Rain = 0
KWE2 201325Z 21002KT 24/17 A3013 RMK A01 T02360168  RH  066%=      5-min Rain = 0
KWE2 201326Z 21003KT 24/17 A3013 RMK A01 T02360168  RH  066%=      5-min Rain = 0
KWE2 201327Z 20003KT 24/17 A3013 RMK A01 T02370167  RH  065%=      5-min Rain = 0
KWE2 201328Z 21002KT 24/17 A3013 RMK A01 T02370168  RH  065%=      5-min Rain = 0
KWE2 201329Z 21002KT 24/17 A3014 RMK A01 T02380169  RH  065%=      5-min Rain = 0
KWE2 201330Z 21002KT 24/17 A3014 RMK A01 T02390169  RH  065%=      5-min Rain = 0
KWE2 201331Z 22002KT 24/17 A3014 RMK A01 T02400171  RH  065%=      5-min Rain = 0
KWE2 201332Z 20003KT 24/17 A3014 RMK A01 T02410170  RH  064%=      5-min Rain = 0
KWE2 201333Z 22002KT 24/17 A3014 RMK A01 T02420172  RH  065%=      5-min Rain = 0
KWE2 201334Z 21003KT 24/17 A3014 RMK A01 T02430171  RH  064%=      5-min Rain = 0
KWE2 201335Z 21002KT 24/17 A3014 RMK A01 T02440171  RH  064%=      5-min Rain = 0
KWE2 201336Z 22002KT 25/17 A3014 RMK A01 T02450170  RH  063%=      5-min Rain = 0
KWE2 201337Z 20003KT 25/17 A3014 RMK A01 T02460171  RH  063%=      5-min Rain = 0
KWE2 201338Z 20004KT 25/17 A3014 RMK A01 T02470171  RH  063%=      5-min Rain = 0
KWE2 201339Z 20004KT 25/17 A3014 RMK A01 T02480171  RH  062%=      5-min Rain = 0
KWE2 201340Z 19003KT 25/17 A3014 RMK A01 T02490172  RH  062%=      5-min Rain = 0
KWE2 201341Z 19004KT 25/17 A3014 RMK A01 T02500170  RH  061%=      5-min Rain = 0
KWE2 201342Z 20004KT 25/17 A3014 RMK A01 T02500170  RH  061%=      5-min Rain = 0
KWE2 201343Z 19003KT 25/17 A3014 RMK A01 T02510171  RH  061%=      5-min Rain = 0
KWE2 201344Z 21004KT 25/17 A3014 RMK A01 T02510172  RH  061%=      5-min Rain = 0
KWE2 201345Z 20006KT 25/17 A3014 RMK A01 T02520172  RH  061%=      5-min Rain = 0
KWE2 201346Z 20006KT 25/17 A3014 RMK A01 T02530170  RH  060%=      5-min Rain = 0
KWE2 201347Z 20005KT 25/17 A3014 RMK A01 T02530170  RH  060%=      5-min Rain = 0
KWE2 201348Z 20005KT 25/17 A3014 RMK A01 T02530172  RH  061%=      5-min Rain = 0
KWE2 201349Z 20006KT 25/17 A3014 RMK A01 T02540170  RH  060%=      5-min Rain = 0
KWE2 201350Z 20005KT 25/17 A3014 RMK A01 T02540170  RH  060%=      5-min Rain = 0
KWE2 201351Z 21005KT 25/17 A3014 RMK A01 T02540173  RH  061%=      5-min Rain = 0
KWE2 201352Z 20006KT 26/17 A3014 RMK A01 T02550173  RH  060%=      5-min Rain = 0
KWE2 201353Z 21005KT 26/17 A3014 RMK A01 T02560174  RH  061%=      5-min Rain = 0
KWE2 201354Z 22006KT 26/18 A3014 RMK A01 T02570175  RH  061%=      5-min Rain = 0
KWE2 201355Z 21006KT 26/18 A3014 RMK A01 T02580175  RH  060%=      5-min Rain = 0
KWE2 201356Z 21007KT 26/17 A3014 RMK A01 T02580174  RH  060%=      5-min Rain = 0
KWE2 201357Z 20006KT 26/18 A3014 RMK A01 T02590175  RH  060%=      5-min Rain = 0
KWE2 201358Z 19006KT 26/18 A3014 RMK A01 T02590175  RH  060%=      5-min Rain = 0
KWE2 201359Z 20005KT 26/17 A3014 RMK A01 T02590174  RH  059%=      5-min Rain = 0
KWE2 201400Z 20006KT 26/18 A3014 RMK A01 T02600177  RH  060%=      5-min Rain = 0
KWE2 201401Z 20006KT 26/18 A3014 RMK A01 T02600177  RH  060%=      5-min Rain = 0
KWE2 201402Z 20007KT 26/18 A3014 RMK A01 T02610176  RH  059%=      5-min Rain = 0
KWE2 201403Z 20007KT 26/18 A3014 RMK A01 T02610176  RH  060%=      5-min Rain = 0
KWE2 201404Z 20005KT 26/18 A3014 RMK A01 T02610177  RH  060%=      5-min Rain = 0
KWE2 201405Z 19005KT 26/18 A3013 RMK A01 T02620178  RH  060%=      5-min Rain = 0
KWE2 201406Z 21006KT 26/18 A3014 RMK A01 T02630179  RH  060%=      5-min Rain = 0
KWE2 201407Z 19006KT 26/18 A3014 RMK A01 T02640180  RH  060%=      5-min Rain = 0
KWE2 201408Z 18007KT 26/18 A3014 RMK A01 T02640180  RH  060%=      5-min Rain = 0
KWE2 201409Z 20009KT 27/18 A3014 RMK A01 T02650179  RH  059%=      5-min Rain = 0
KWE2 201410Z 20008KT 27/18 A3014 RMK A01 T02650180  RH  060%=      5-min Rain = 0
KWE2 201411Z 19006KT 27/18 A3014 RMK A01 T02660182  RH  060%=      5-min Rain = 0
KWE2 201412Z 19004KT 27/19 A3014 RMK A01 T02670185  RH  061%=      5-min Rain = 0
KWE2 201413Z 19006KT 27/19 A3014 RMK A01 T02680186  RH  061%=      5-min Rain = 0
KWE2 201414Z 19007KT 27/18 A3013 RMK A01 T02690181  RH  059%=      5-min Rain = 0
KWE2 201415Z 19005KT 27/18 A3014 RMK A01 T02690184  RH  060%=      5-min Rain = 0
KWE2 201416Z 19009KT 27/18 A3014 RMK A01 T02680184  RH  060%=      5-min Rain = 0
KWE2 201417Z 19007KT 27/18 A3014 RMK A01 T02690182  RH  059%=      5-min Rain = 0
KWE2 201418Z 19007KT 27/18 A3014 RMK A01 T02690184  RH  060%=      5-min Rain = 0
KWE2 201419Z 19009KT 27/18 A3014 RMK A01 T02700184  RH  059%=      5-min Rain = 0
KWE2 201420Z 20008KT 27/19 A3014 RMK A01 T02700185  RH  060%=      5-min Rain = 0
KWE2 201421Z 20009KT 27/19 A3014 RMK A01 T02710185  RH  060%=      5-min Rain = 0
KWE2 201422Z 21009KT 27/19 A3014 RMK A01 T02710185  RH  059%=      5-min Rain = 0
KWE2 201423Z 19006KT 27/19 A3014 RMK A01 T02720188  RH  060%=      5-min Rain = 0
KWE2 201424Z 18008KT 27/19 A3014 RMK A01 T02730188  RH  060%=      5-min Rain = 0
KWE2 201425Z 19008KT 27/19 A3014 RMK A01 T02740187  RH  059%=      5-min Rain = 0
KWE2 201426Z 20010KT 27/19 A3014 RMK A01 T02740187  RH  059%=      5-min Rain = 0
KWE2 201427Z 19008KT 27/19 A3014 RMK A01 T02740187  RH  059%=      5-min Rain = 0
KWE2 201428Z 20007KT 27/19 A3014 RMK A01 T02740187  RH  059%=      5-min Rain = 0
KWE2 201429Z 20009KT 27/19 A3014 RMK A01 T02740186  RH  059%=      5-min Rain = 0
KWE2 201430Z 20009KT 27/19 A3014 RMK A01 T02740188  RH  059%=      5-min Rain = 0
KWE2 201431Z 19008KT 28/19 A3014 RMK A01 T02760190  RH  059%=      5-min Rain = 0
KWE2 201432Z 20011KT 28/19 A3014 RMK A01 T02770190  RH  059%=      5-min Rain = 0
KWE2 201433Z 20010KT 28/19 A3014 RMK A01 T02770188  RH  058%=      5-min Rain = 0
KWE2 201434Z 20012KT 28/19 A3014 RMK A01 T02770188  RH  058%=      5-min Rain = 0
KWE2 201435Z 19012KT 28/19 A3014 RMK A01 T02770189  RH  059%=      5-min Rain = 0
KWE2 201436Z 19012KT 28/19 A3014 RMK A01 T02770189  RH  059%=      5-min Rain = 0
KWE2 201437Z 19011KT 28/19 A3014 RMK A01 T02770188  RH  058%=      5-min Rain = 0
KWE2 201438Z 20011KT 28/19 A3014 RMK A01 T02770188  RH  059%=      5-min Rain = 0
KWE2 201439Z 19012KT 28/19 A3014 RMK A01 T02770189  RH  059%=      5-min Rain = 0
KWE2 201440Z 19013KT 28/19 A3014 RMK A01 T02770187  RH  058%=      5-min Rain = 0
KWE2 201441Z 20011KT 28/19 A3014 RMK A01 T02780188  RH  058%=      5-min Rain = 0
KWE2 201442Z 20011KT 28/19 A3014 RMK A01 T02780188  RH  058%=      5-min Rain = 0
KWE2 201443Z 20012KT 28/19 A3014 RMK A01 T02790188  RH  058%=      5-min Rain = 0
KWE2 201444Z 19011KT 28/19 A3014 RMK A01 T02790188  RH  057%=      5-min Rain = 0
KWE2 201445Z 20012KT 28/19 A3014 RMK A01 T02800189  RH  058%=      5-min Rain = 0
KWE2 201446Z 19010KT 28/19 A3014 RMK A01 T02800190  RH  058%=      5-min Rain = 0
KWE2 201447Z 19011KT 28/19 A3014 RMK A01 T02810191  RH  058%=      5-min Rain = 0
KWE2 201448Z 19011KT 28/19 A3014 RMK A01 T02810190  RH  058%=      5-min Rain = 0
KWE2 201449Z 19012KT 28/19 A3014 RMK A01 T02820189  RH  057%=      5-min Rain = 0
KWE2 201450Z 19013KT 28/19 A3014 RMK A01 T02810187  RH  057%=      5-min Rain = 0
KWE2 201451Z 19011KT 28/19 A3014 RMK A01 T02810187  RH  057%=      5-min Rain = 0
KWE2 201452Z 20011KT 28/19 A3014 RMK A01 T02800189  RH  057%=      5-min Rain = 0
KWE2 201453Z 21011KT 28/19 A3014 RMK A01 T02810188  RH  057%=      5-min Rain = 0
KWE2 201454Z 20011KT 28/19 A3014 RMK A01 T02820189  RH  057%=      5-min Rain = 0
KWE2 201455Z 19009KT 28/19 A3013 RMK A01 T02830191  RH  057%=      5-min Rain = 0
KWE2 201456Z 19010KT 28/19 A3013 RMK A01 T02830189  RH  057%=      5-min Rain = 0
KWE2 201457Z 19012KT 28/19 A3013 RMK A01 T02830188  RH  056%=      5-min Rain = 0
KWE2 201458Z 20010KT 28/19 A3013 RMK A01 T02830189  RH  057%=      5-min Rain = 0
KWE2 201459Z 19010KT 28/19 A3013 RMK A01 T02830190  RH  057%=      5-min Rain = 0
KWE2 201500Z 19011KT 28/19 A3013 RMK A01 T02840188  RH  056%=      5-min Rain = 0
KWE2 201501Z 20009KT 28/19 A3013 RMK A01 T02830188  RH  056%=      5-min Rain = 0
KWE2 201502Z 20009KT 28/19 A3013 RMK A01 T02830190  RH  057%=      5-min Rain = 0
KWE2 201503Z 20009KT 28/19 A3013 RMK A01 T02840189  RH  056%=      5-min Rain = 0
KWE2 201504Z 19008KT 28/19 A3013 RMK A01 T02840190  RH  057%=      5-min Rain = 0
KWE2 201505Z 20009KT 29/19 A3013 RMK A01 T02850191  RH  057%=      5-min Rain = 0
KWE2 201506Z 21010G16KT 29/19 A3013 RMK A01 T02860190  RH  056%=      5-min Rain = 0
KWE2 201507Z 21013KT 29/19 A3013 RMK A01 T02870186  RH  054%=      5-min Rain = 0
KWE2 201508Z 21012KT 29/19 A3013 RMK A01 T02860186  RH  055%=      5-min Rain = 0
KWE2 201509Z 19013KT 29/19 A3013 RMK A01 T02860186  RH  055%=      5-min Rain = 0
KWE2 201510Z 19012KT 29/19 A3013 RMK A01 T02850187  RH  055%=      5-min Rain = 0
KWE2 201511Z 19012KT 29/19 A3014 RMK A01 T02850188  RH  056%=      5-min Rain = 0
KWE2 201512Z 19013KT 29/19 A3014 RMK A01 T02850186  RH  055%=      5-min Rain = 0
KWE2 201513Z 20012KT 29/19 A3014 RMK A01 T02860188  RH  055%=      5-min Rain = 0
KWE2 201514Z 20011KT 29/19 A3014 RMK A01 T02870187  RH  055%=      5-min Rain = 0
KWE2 201515Z 20011KT 29/19 A3013 RMK A01 T02870186  RH  055%=      5-min Rain = 0
KWE2 201516Z 21011KT 29/19 A3013 RMK A01 T02860185  RH  054%=      5-min Rain = 0
KWE2 201517Z 20012KT 29/19 A3013 RMK A01 T02860186  RH  055%=      5-min Rain = 0
KWE2 201518Z 20012KT 29/19 A3013 RMK A01 T02870186  RH  054%=      5-min Rain = 0
KWE2 201519Z 20010KT 29/19 A3013 RMK A01 T02860186  RH  055%=      5-min Rain = 0
KWE2 201520Z 19011KT 29/19 A3013 RMK A01 T02860187  RH  055%=      5-min Rain = 0
KWE2 201521Z 20012KT 29/19 A3013 RMK A01 T02870186  RH  054%=      5-min Rain = 0
KWE2 201522Z 19011KT 29/19 A3013 RMK A01 T02870185  RH  054%=      5-min Rain = 0
KWE2 201523Z 20012KT 29/19 A3013 RMK A01 T02860187  RH  055%=      5-min Rain = 0
KWE2 201524Z 21010KT 29/19 A3013 RMK A01 T02860186  RH  055%=      5-min Rain = 0
KWE2 201525Z 21010KT 29/19 A3013 RMK A01 T02870188  RH  055%=      5-min Rain = 0
KWE2 201526Z 21011KT 29/19 A3014 RMK A01 T02890187  RH  054%=      5-min Rain = 0
KWE2 201527Z 20012KT 29/19 A3014 RMK A01 T02900186  RH  053%=      5-min Rain = 0
KWE2 201528Z 20010KT 29/19 A3014 RMK A01 T02900187  RH  054%=      5-min Rain = 0
KWE2 201529Z 19008KT 29/19 A3014 RMK A01 T02890188  RH  054%=      5-min Rain = 0
KWE2 201530Z 19007KT 29/19 A3014 RMK A01 T02900188  RH  054%=      5-min Rain = 0
KWE2 201531Z 18010KT 29/19 A3014 RMK A01 T02910189  RH  054%=      5-min Rain = 0
KWE2 201532Z 18010KT 29/19 A3014 RMK A01 T02910189  RH  054%=      5-min Rain = 0
KWE2 201533Z 20009KT 29/19 A3014 RMK A01 T02920190  RH  054%=      5-min Rain = 0
KWE2 201534Z 20010KT 29/19 A3014 RMK A01 T02930190  RH  054%=      5-min Rain = 0
KWE2 201535Z 21010KT 29/19 A3014 RMK A01 T02940187  RH  053%=      5-min Rain = 0
KWE2 201536Z 20008KT 29/19 A3014 RMK A01 T02930189  RH  053%=      5-min Rain = 0
KWE2 201537Z 19009KT 29/19 A3014 RMK A01 T02940190  RH  054%=      5-min Rain = 0
KWE2 201538Z 20010KT 30/19 A3014 RMK A01 T02950190  RH  053%=      5-min Rain = 0
KWE2 201539Z 20009KT 29/19 A3014 RMK A01 T02940190  RH  054%=      5-min Rain = 0
KWE2 201540Z 21008KT 30/19 A3014 RMK A01 T02950190  RH  053%=      5-min Rain = 0
KWE2 201541Z 19010KT 30/19 A3014 RMK A01 T02960191  RH  053%=      5-min Rain = 0
KWE2 201542Z 20009KT 30/19 A3014 RMK A01 T02960187  RH  052%=      5-min Rain = 0
KWE2 201543Z 19009KT 30/19 A3014 RMK A01 T02950189  RH  053%=      5-min Rain = 0
KWE2 201544Z 19009KT 30/19 A3014 RMK A01 T02950190  RH  053%=      5-min Rain = 0
KWE2 201545Z 20009KT 30/19 A3014 RMK A01 T02950190  RH  053%=      5-min Rain = 0
KWE2 201546Z 20009KT 30/19 A3014 RMK A01 T02960190  RH  053%=      5-min Rain = 0
KWE2 201547Z 21007KT 30/19 A3014 RMK A01 T02960186  RH  052%=      5-min Rain = 0
KWE2 201548Z 21007KT 30/19 A3014 RMK A01 T02950188  RH  053%=      5-min Rain = 0
KWE2 201549Z 19006KT 30/19 A3014 RMK A01 T02980194  RH  054%=      5-min Rain = 0
KWE2 201550Z 17009KT 30/19 A3014 RMK A01 T03010192  RH  052%=      5-min Rain = 0
KWE2 201551Z 18009KT 30/19 A3014 RMK A01 T03010192  RH  052%=      5-min Rain = 0
KWE2 201552Z 19008KT 30/19 A3014 RMK A01 T03000191  RH  052%=      5-min Rain = 0
KWE2 201553Z 17007KT 30/19 A3014 RMK A01 T02990190  RH  052%=      5-min Rain = 0
KWE2 201554Z 17009KT 30/19 A3014 RMK A01 T02990192  RH  053%=      5-min Rain = 0
KWE2 201555Z 18007KT 30/20 A3014 RMK A01 T03000195  RH  053%=      5-min Rain = 0
KWE2 201556Z 19007KT 30/20 A3014 RMK A01 T03030195  RH  052%=      5-min Rain = 0
KWE2 201557Z 18009KT 31/19 A3014 RMK A01 T03050192  RH  051%=      5-min Rain = 0
KWE2 201558Z 19010KT 30/19 A3014 RMK A01 T03030190  RH  051%=      5-min Rain = 0
KWE2 201559Z 20010KT 30/19 A3014 RMK A01 T03000190  RH  052%=      5-min Rain = 0
KWE2 201600Z 21007KT 30/19 A3014 RMK A01 T03000188  RH  051%=      5-min Rain = 0
KWE2 201601Z 20006KT 30/19 A3014 RMK A01 T03000190  RH  052%=      5-min Rain = 0
KWE2 201602Z 20008KT 30/19 A3014 RMK A01 T03010189  RH  051%=      5-min Rain = 0
KWE2 201603Z 18007KT 30/19 A3014 RMK A01 T03010193  RH  052%=      5-min Rain = 0
KWE2 201604Z 20010KT 31/20 A3014 RMK A01 T03050195  RH  052%=      5-min Rain = 0
KWE2 201605Z 19008KT 31/19 A3014 RMK A01 T03060194  RH  051%=      5-min Rain = 0
KWE2 201606Z 18007KT 31/20 A3014 RMK A01 T03070198  RH  052%=      5-min Rain = 0
KWE2 201607Z 19008KT 31/19 A3014 RMK A01 T03080193  RH  050%=      5-min Rain = 0
KWE2 201608Z 19008KT 31/19 A3014 RMK A01 T03070193  RH  051%=      5-min Rain = 0
KWE2 201609Z 18008KT 31/19 A3014 RMK A01 T03070193  RH  051%=      5-min Rain = 0
KWE2 201610Z 19010KT 31/19 A3014 RMK A01 T03070194  RH  051%=      5-min Rain = 0
KWE2 201611Z 20009KT 31/19 A3014 RMK A01 T03080193  RH  051%=      5-min Rain = 0
KWE2 201612Z 21007KT 31/19 A3014 RMK A01 T03080189  RH  049%=      5-min Rain = 0
KWE2 201613Z 20010KT 31/19 A3014 RMK A01 T03080191  RH  050%=      5-min Rain = 0
KWE2 201614Z 21009KT 31/19 A3014 RMK A01 T03070190  RH  050%=      5-min Rain = 0
KWE2 201615Z 22007KT 31/19 A3014 RMK A01 T03060189  RH  050%=      5-min Rain = 0
KWE2 201616Z 22007KT 31/19 A3014 RMK A01 T03060189  RH  050%=      5-min Rain = 0
KWE2 201617Z 20004KT 31/19 A3013 RMK A01 T03050191  RH  050%=      5-min Rain = 0
KWE2 201618Z 19008KT 31/19 A3013 RMK A01 T03060193  RH  051%=      5-min Rain = 0
KWE2 201619Z 20006KT 31/20 A3013 RMK A01 T03090195  RH  050%=      5-min Rain = 0
KWE2 201620Z 20009KT 31/19 A3013 RMK A01 T03120192  RH  049%=      5-min Rain = 0
KWE2 201621Z 19009KT 31/19 A3013 RMK A01 T03120190  RH  048%=      5-min Rain = 0
KWE2 201622Z 20008KT 31/19 A3013 RMK A01 T03100190  RH  049%=      5-min Rain = 0
KWE2 201623Z 21006KT 31/19 A3013 RMK A01 T03110189  RH  048%=      5-min Rain = 0
KWE2 201624Z 19008KT 31/19 A3013 RMK A01 T03110189  RH  048%=      5-min Rain = 0
KWE2 201625Z 20006KT 31/19 A3013 RMK A01 T03120185  RH  047%=      5-min Rain = 0
KWE2 201626Z 18010KT 31/19 A3013 RMK A01 T03110189  RH  048%=      5-min Rain = 0
KWE2 201627Z 19011KT 31/19 A3013 RMK A01 T03110186  RH  047%=      5-min Rain = 0
KWE2 201628Z 19008KT 31/19 A3013 RMK A01 T03120186  RH  047%=      5-min Rain = 0
KWE2 201629Z 20007KT 31/19 A3013 RMK A01 T03100190  RH  049%=      5-min Rain = 0
KWE2 201630Z 20006KT 31/19 A3013 RMK A01 T03110187  RH  048%=      5-min Rain = 0
KWE2 201631Z 19008KT 31/19 A3013 RMK A01 T03110188  RH  048%=      5-min Rain = 0
KWE2 201632Z 19009KT 31/19 A3014 RMK A01 T03110185  RH  047%=      5-min Rain = 0
KWE2 201633Z 18009KT 31/19 A3014 RMK A01 T03100185  RH  047%=      5-min Rain = 0
KWE2 201634Z 17010KT 31/19 A3013 RMK A01 T03110186  RH  048%=      5-min Rain = 0
KWE2 201635Z 17008KT 31/19 A3014 RMK A01 T03130186  RH  047%=      5-min Rain = 0
KWE2 201636Z 17007KT 31/19 A3014 RMK A01 T03130187  RH  047%=      5-min Rain = 0
KWE2 201637Z 17009KT 31/18 A3013 RMK A01 T03140183  RH  046%=      5-min Rain = 0
KWE2 201638Z 18009KT 31/18 A3013 RMK A01 T03140184  RH  046%=      5-min Rain = 0
KWE2 201639Z 19008KT 32/18 A3014 RMK A01 T03160182  RH  045%=      5-min Rain = 0
KWE2 201640Z 20006KT 32/18 A3014 RMK A01 T03170182  RH  045%=      5-min Rain = 0
KWE2 201641Z 18009KT 32/18 A3013 RMK A01 T03180183  RH  045%=      5-min Rain = 0
KWE2 201642Z 20010KT 32/18 A3013 RMK A01 T03180182  RH  044%=      5-min Rain = 0
KWE2 201643Z 20008KT 32/18 A3014 RMK A01 T03170181  RH  044%=      5-min Rain = 0
KWE2 201644Z 19008KT 32/18 A3013 RMK A01 T03150181  RH  045%=      5-min Rain = 0
KWE2 201645Z 19009KT 32/18 A3013 RMK A01 T03150178  RH  044%=      5-min Rain = 0
KWE2 201646Z 19010KT 32/18 A3013 RMK A01 T03160180  RH  044%=      5-min Rain = 0
KWE2 201647Z 19009KT 32/18 A3013 RMK A01 T03170175  RH  043%=      5-min Rain = 0
KWE2 201648Z 19007KT 32/18 A3013 RMK A01 T03170177  RH  043%=      5-min Rain = 0
KWE2 201649Z 19008G13KT 32/18 A3013 RMK A01 T03170177  RH  043%=      5-min Rain = 0
KWE2 201650Z 18009KT 32/18 A3013 RMK A01 T03180178  RH  043%=      5-min Rain = 0
KWE2 201651Z 17008KT 32/18 A3013 RMK A01 T03180181  RH  044%=      5-min Rain = 0
KWE2 201652Z 15006KT 32/18 A3013 RMK A01 T03190179  RH  043%=      5-min Rain = 0
KWE2 201653Z 14005KT 32/18 A3013 RMK A01 T03190182  RH  044%=      5-min Rain = 0
KWE2 201654Z 15006KT 32/18 A3013 RMK A01 T03190178  RH  043%=      5-min Rain = 0
KWE2 201655Z 17007KT 32/18 A3013 RMK A01 T03200180  RH  043%=      5-min Rain = 0
KWE2 201656Z 18009KT 32/18 A3013 RMK A01 T03200177  RH  043%=      5-min Rain = 0
KWE2 201657Z 19010KT 32/18 A3013 RMK A01 T03210175  RH  042%=      5-min Rain = 0
KWE2 201658Z 20007KT 32/17 A3013 RMK A01 T03200173  RH  041%=      5-min Rain = 0
KWE2 201659Z 20007G12KT 32/18 A3013 RMK A01 T03180178  RH  043%=      5-min Rain = 0
KWE2 201700Z 19009KT 32/18 A3013 RMK A01 T03210178  RH  043%=      5-min Rain = 0
KWE2 201701Z 17009KT 32/18 A3013 RMK A01 T03230176  RH  042%=      5-min Rain = 0
KWE2 201702Z 17009KT 32/17 A3013 RMK A01 T03210173  RH  041%=      5-min Rain = 0
KWE2 201703Z 19006KT 32/18 A3013 RMK A01 T03190177  RH  043%=      5-min Rain = 0
KWE2 201704Z 19008KT 32/18 A3013 RMK A01 T03210177  RH  042%=      5-min Rain = 0
KWE2 201705Z 16009KT 32/18 A3013 RMK A01 T03230178  RH  042%=      5-min Rain = 0
KWE2 201706Z 15008KT 32/18 A3013 RMK A01 T03240176  RH  041%=      5-min Rain = 0
KWE2 201707Z 17009KT 33/18 A3013 RMK A01 T03250179  RH  042%=      5-min Rain = 0
KWE2 201708Z 17008KT 33/18 A3013 RMK A01 T03260175  RH  041%=      5-min Rain = 0
KWE2 201709Z 17007KT 33/18 A3013 RMK A01 T03250177  RH  041%=      5-min Rain = 0
KWE2 201710Z 18007KT 32/18 A3013 RMK A01 T03240175  RH  041%=      5-min Rain = 0
KWE2 201711Z 18007KT 32/18 A3013 RMK A01 T03230176  RH  042%=      5-min Rain = 0
KWE2 201712Z 17011KT 32/18 A3013 RMK A01 T03230176  RH  042%=      5-min Rain = 0
KWE2 201713Z 18010KT 32/17 A3013 RMK A01 T03230172  RH  041%=      5-min Rain = 0
KWE2 201714Z 16007KT 32/17 A3013 RMK A01 T03240174  RH  041%=      5-min Rain = 0
KWE2 201715Z 17007KT 33/18 A3013 RMK A01 T03250175  RH  041%=      5-min Rain = 0
KWE2 201716Z 20007KT 33/18 A3013 RMK A01 T03270178  RH  041%=      5-min Rain = 0
KWE2 201717Z 20008KT 33/17 A3013 RMK A01 T03270174  RH  040%=      5-min Rain = 0
KWE2 201718Z 20006KT 33/18 A3013 RMK A01 T03250175  RH  041%=      5-min Rain = 0
KWE2 201719Z 20007KT 32/18 A3013 RMK A01 T03240178  RH  042%=      5-min Rain = 0
KWE2 201720Z 18007KT 32/18 A3013 RMK A01 T03240179  RH  042%=      5-min Rain = 0
KWE2 201721Z 18006KT 33/18 A3013 RMK A01 T03250180  RH  042%=      5-min Rain = 0
KWE2 201722Z 15009KT 33/18 A3013 RMK A01 T03250181  RH  042%=      5-min Rain = 0
KWE2 201723Z 17009KT 33/18 A3013 RMK A01 T03290180  RH  041%=      5-min Rain = 0
KWE2 201724Z 18011KT 33/18 A3013 RMK A01 T03320177  RH  040%=      5-min Rain = 0
KWE2 201725Z 18011KT 33/18 A3013 RMK A01 T03300177  RH  040%=      5-min Rain = 0
KWE2 201726Z 18009KT 33/18 A3013 RMK A01 T03270176  RH  041%=      5-min Rain = 0
KWE2 201727Z 17006KT 33/18 A3013 RMK A01 T03250175  RH  041%=      5-min Rain = 0
KWE2 201728Z 18007KT 32/18 A3013 RMK A01 T03240177  RH  042%=      5-min Rain = 0
KWE2 201729Z 20006KT 32/18 A3013 RMK A01 T03240177  RH  042%=      5-min Rain = 0
KWE2 201730Z 20007KT 33/17 A3013 RMK A01 T03250173  RH  040%=      5-min Rain = 0
KWE2 201731Z 19006KT 33/18 A3013 RMK A01 T03250175  RH  041%=      5-min Rain = 0
KWE2 201732Z 18008KT 33/17 A3013 RMK A01 T03260172  RH  040%=      5-min Rain = 0
KWE2 201733Z 18005KT 33/17 A3013 RMK A01 T03260171  RH  039%=      5-min Rain = 0
KWE2 201734Z 17007KT 33/18 A3013 RMK A01 T03250176  RH  041%=      5-min Rain = 0
KWE2 201735Z 18007KT 33/18 A3013 RMK A01 T03260175  RH  041%=      5-min Rain = 0
KWE2 201736Z 18010KT 33/18 A3013 RMK A01 T03270175  RH  040%=      5-min Rain = 0
KWE2 201737Z 18010KT 33/18 A3013 RMK A01 T03290176  RH  040%=      5-min Rain = 0
KWE2 201738Z 19008KT 33/17 A3013 RMK A01 T03290174  RH  040%=      5-min Rain = 0
KWE2 201739Z 17007KT 33/17 A3013 RMK A01 T03280174  RH  040%=      5-min Rain = 0
KWE2 201740Z 18007KT 33/17 A3013 RMK A01 T03260172  RH  040%=      5-min Rain = 0
KWE2 201741Z 18007KT 32/18 A3013 RMK A01 T03240176  RH  041%=      5-min Rain = 0
KWE2 201742Z 17005KT 33/18 A3013 RMK A01 T03260180  RH  042%=      5-min Rain = 0
KWE2 201743Z 16005KT 33/18 A3013 RMK A01 T03300175  RH  040%=      5-min Rain = 0
KWE2 201744Z 18007KT 33/18 A3013 RMK A01 T03300177  RH  040%=      5-min Rain = 0
KWE2 201745Z 18008KT 33/18 A3013 RMK A01 T03300175  RH  040%=      5-min Rain = 0
KWE2 201746Z 17005KT 33/17 A3013 RMK A01 T03290172  RH  039%=      5-min Rain = 0
KWE2 201747Z 17005KT 33/17 A3013 RMK A01 T03280171  RH  039%=      5-min Rain = 0
KWE2 201748Z 19005KT 33/18 A3013 RMK A01 T03290176  RH  040%=      5-min Rain = 0
KWE2 201749Z 17008KT 33/18 A3013 RMK A01 T03330180  RH  040%=      5-min Rain = 0
KWE2 201750Z 15005KT 33/18 A3013 RMK A01 T03330178  RH  040%=      5-min Rain = 0
KWE2 201751Z 14005KT 33/18 A3013 RMK A01 T03310178  RH  040%=      5-min Rain = 0
KWE2 201752Z 16003KT 33/18 A3013 RMK A01 T03310179  RH  041%=      5-min Rain = 0
KWE2 201753Z 18005KT 33/18 A3013 RMK A01 T03310181  RH  041%=      5-min Rain = 0
KWE2 201754Z 19008KT 33/18 A3013 RMK A01 T03330181  RH  041%=      5-min Rain = 0
KWE2 201755Z 19009KT 33/18 A3013 RMK A01 T03340179  RH  040%=      5-min Rain = 0
KWE2 201756Z 20006KT 34/18 A3013 RMK A01 T03350176  RH  039%=      5-min Rain = 0
KWE2 201757Z 19007KT 33/18 A3013 RMK A01 T03340179  RH  040%=      5-min Rain = 0
KWE2 201758Z 18007KT 34/18 A3013 RMK A01 T03360180  RH  040%=      5-min Rain = 0
KWE2 201759Z 17009KT 34/18 A3013 RMK A01 T03370182  RH  040%=      5-min Rain = 0
KWE2 201800Z 15008KT 34/18 A3013 RMK A01 T03380181  RH  039%=      5-min Rain = 0
KWE2 201801Z 15009KT 34/18 A3013 RMK A01 T03380180  RH  039%=      5-min Rain = 0
KWE2 201802Z 16007KT 34/18 A3013 RMK A01 T03380179  RH  039%=      5-min Rain = 0
KWE2 201803Z 18006KT 34/18 A3013 RMK A01 T03360181  RH  040%=      5-min Rain = 0
KWE2 201804Z 17008KT 34/18 A3013 RMK A01 T03360179  RH  039%=      5-min Rain = 0
KWE2 201805Z 19009KT 34/18 A3013 RMK A01 T03390177  RH  038%=      5-min Rain = 0
KWE2 201806Z 18008KT 34/18 A3013 RMK A01 T03380176  RH  038%=      5-min Rain = 0
KWE2 201807Z 18006KT 34/18 A3013 RMK A01 T03370176  RH  038%=      5-min Rain = 0
KWE2 201808Z 21004KT 34/18 A3013 RMK A01 T03360175  RH  039%=      5-min Rain = 0
KWE2 201809Z 22002KT 34/17 A3013 RMK A01 T03350173  RH  038%=      5-min Rain = 0
KWE2 201810Z 20003KT 33/17 A3013 RMK A01 T03340174  RH  038%=      5-min Rain = 0
KWE2 201811Z 18005KT 33/17 A3013 RMK A01 T03340174  RH  039%=      5-min Rain = 0
KWE2 201812Z 16008G13KT 33/17 A3013 RMK A01 T03340174  RH  039%=      5-min Rain = 0
KWE2 201813Z 15007KT 34/17 A3013 RMK A01 T03360171  RH  037%=      5-min Rain = 0
KWE2 201814Z 15008G13KT 34/17 A3013 RMK A01 T03400173  RH  037%=      5-min Rain = 0
KWE2 201815Z 14005KT 34/17 A3013 RMK A01 T03400171  RH  037%=      5-min Rain = 0
KWE2 201816Z 13008KT 34/17 A3013 RMK A01 T03390169  RH  036%=      5-min Rain = 0
KWE2 201817Z 13009KT 34/17 A3013 RMK A01 T03400170  RH  037%=      5-min Rain = 0
KWE2 201818Z 18008KT 34/17 A3013 RMK A01 T03410174  RH  037%=      5-min Rain = 0
KWE2 201819Z 18010KT 34/17 A3013 RMK A01 T03430168  RH  035%=      5-min Rain = 0
KWE2 201820Z 18008KT 34/16 A3013 RMK A01 T03410164  RH  035%=      5-min Rain = 0
KWE2 201821Z 19007KT 34/17 A3013 RMK A01 T03380166  RH  036%=      5-min Rain = 0
KWE2 201822Z 19008KT 34/17 A3013 RMK A01 T03370166  RH  036%=      5-min Rain = 0
KWE2 201823Z 20006KT 34/17 A3013 RMK A01 T03360167  RH  037%=      5-min Rain = 0
KWE2 201824Z 18007KT 34/17 A3013 RMK A01 T03360168  RH  037%=      5-min Rain = 0
KWE2 201825Z 17009KT 34/17 A3013 RMK A01 T03380169  RH  036%=      5-min Rain = 0
KWE2 201826Z 18009KT 34/17 A3013 RMK A01 T03390173  RH  037%=      5-min Rain = 0
KWE2 201827Z 18009KT 34/17 A3013 RMK A01 T03390173  RH  037%=      5-min Rain = 0
KWE2 201828Z 18007KT 34/17 A3012 RMK A01 T03380171  RH  037%=      5-min Rain = 0
KWE2 201829Z 18008KT 34/17 A3012 RMK A01 T03380173  RH  038%=      5-min Rain = 0
KWE2 201830Z 17009KT 34/18 A3012 RMK A01 T03400177  RH  038%=      5-min Rain = 0
KWE2 201831Z 17009KT 34/18 A3012 RMK A01 T03400178  RH  038%=      5-min Rain = 0
KWE2 201832Z 16008KT 34/18 A3012 RMK A01 T03390179  RH  039%=      5-min Rain = 0
KWE2 201833Z 14008KT 34/18 A3012 RMK A01 T03390178  RH  038%=      5-min Rain = 0
KWE2 201834Z 13011KT 34/18 A3012 RMK A01 T03430179  RH  038%=      5-min Rain = 0
KWE2 201835Z 13011KT 34/18 A3012 RMK A01 T03440175  RH  037%=      5-min Rain = 0
KWE2 201836Z 13007KT 34/17 A3012 RMK A01 T03410172  RH  036%=      5-min Rain = 0
KWE2 201837Z 13006KT 34/17 A3012 RMK A01 T03400173  RH  037%=      5-min Rain = 0
KWE2 201838Z 13012KT 34/18 A3012 RMK A01 T03400175  RH  038%=      5-min Rain = 0
KWE2 201839Z 13012KT 34/17 A3012 RMK A01 T03440172  RH  036%=      5-min Rain = 0
KWE2 201840Z 13011KT 35/17 A3012 RMK A01 T03460173  RH  036%=      5-min Rain = 0
KWE2 201841Z 13009KT 35/18 A3012 RMK A01 T03500175  RH  036%=      5-min Rain = 0
KWE2 201842Z 16008KT 35/17 A3012 RMK A01 T03510174  RH  035%=      5-min Rain = 0
KWE2 201843Z 14010KT 35/17 A3012 RMK A01 T03480174  RH  036%=      5-min Rain = 0
KWE2 201844Z 14012KT 35/18 A3012 RMK A01 T03470175  RH  036%=      5-min Rain = 0
KWE2 201845Z 13013KT 35/17 A3012 RMK A01 T03490170  RH  035%=      5-min Rain = 0
KWE2 201846Z 13012KT 35/17 A3012 RMK A01 T03490170  RH  035%=      5-min Rain = 0
KWE2 201847Z 13012KT 35/17 A3012 RMK A01 T03480171  RH  035%=      5-min Rain = 0
KWE2 201848Z 16009KT 35/17 A3012 RMK A01 T03470172  RH  035%=      5-min Rain = 0
KWE2 201849Z 19009KT 35/17 A3012 RMK A01 T03450167  RH  035%=      5-min Rain = 0
KWE2 201850Z 16010KT 34/17 A3012 RMK A01 T03420170  RH  036%=      5-min Rain = 0
KWE2 201851Z 17011KT 35/17 A3012 RMK A01 T03450168  RH  035%=      5-min Rain = 0
KWE2 201852Z 16009KT 35/17 A3012 RMK A01 T03450166  RH  034%=      5-min Rain = 0
KWE2 201853Z 13009KT 35/17 A3012 RMK A01 T03450165  RH  034%=      5-min Rain = 0
KWE2 201854Z 15005KT 35/16 A3012 RMK A01 T03450161  RH  033%=      5-min Rain = 0
KWE2 201855Z 17010KT 34/17 A3012 RMK A01 T03440166  RH  035%=      5-min Rain = 0
KWE2 201856Z 17010KT 34/17 A3012 RMK A01 T03430169  RH  036%=      5-min Rain = 0
KWE2 201857Z 15007KT 34/17 A3012 RMK A01 T03430174  RH  037%=      5-min Rain = 0
KWE2 201858Z 13005KT 35/17 A3012 RMK A01 T03460170  RH  035%=      5-min Rain = 0
KWE2 201859Z 16004KT 35/17 A3012 RMK A01 T03460170  RH  035%=      5-min Rain = 0
KWE2 201900Z 19004KT 35/17 A3012 RMK A01 T03450170  RH  035%=      5-min Rain = 0
KWE2 201901Z 12008KT 34/17 A3012 RMK A01 T03440172  RH  036%=      5-min Rain = 0
KWE2 201902Z 13011KT 34/18 A3012 RMK A01 T03440175  RH  037%=      5-min Rain = 0
KWE2 201903Z 14011KT 35/17 A3012 RMK A01 T03460173  RH  036%=      5-min Rain = 0
KWE2 201904Z 13010KT 35/17 A3012 RMK A01 T03480173  RH  035%=      5-min Rain = 0
KWE2 201905Z 13010KT 35/17 A3012 RMK A01 T03480174  RH  036%=      5-min Rain = 0
KWE2 201906Z 11008KT 35/17 A3012 RMK A01 T03480172  RH  035%=      5-min Rain = 0
KWE2 201907Z 10011KT 35/17 A3011 RMK A01 T03470172  RH  035%=      5-min Rain = 0
KWE2 201908Z 10010KT 35/17 A3011 RMK A01 T03460171  RH  035%=      5-min Rain = 0
KWE2 201909Z 14011G17KT 35/18 A3011 RMK A01 T03460176  RH  037%=      5-min Rain = 0
KWE2 201910Z 15010KT 35/17 A3012 RMK A01 T03490170  RH  035%=      5-min Rain = 0
KWE2 201911Z 15005KT 35/17 A3011 RMK A01 T03460170  RH  035%=      5-min Rain = 0
KWE2 201912Z 16010KT 34/18 A3011 RMK A01 T03440175  RH  037%=      5-min Rain = 0
KWE2 201913Z 15013KT 35/18 A3011 RMK A01 T03480175  RH  036%=      5-min Rain = 0
KWE2 201914Z 14014KT 35/17 A3011 RMK A01 T03480172  RH  035%=      5-min Rain = 0
KWE2 201915Z 14012KT 35/17 A3011 RMK A01 T03480174  RH  036%=      5-min Rain = 0
KWE2 201916Z 13010KT 35/17 A3011 RMK A01 T03490174  RH  036%=      5-min Rain = 0
KWE2 201917Z 13012KT 35/17 A3011 RMK A01 T03500174  RH  035%=      5-min Rain = 0
KWE2 201918Z 14012KT 35/17 A3011 RMK A01 T03530173  RH  034%=      5-min Rain = 0
KWE2 201919Z 13009G15KT 35/17 A3011 RMK A01 T03510170  RH  034%=      5-min Rain = 0
KWE2 201920Z 13012KT 35/17 A3011 RMK A01 T03490168  RH  034%=      5-min Rain = 0
KWE2 201921Z 13013KT 35/17 A3011 RMK A01 T03490167  RH  034%=      5-min Rain = 0
KWE2 201922Z 13012KT 35/17 A3011 RMK A01 T03470166  RH  034%=      5-min Rain = 0
KWE2 201923Z 12009KT 34/17 A3011 RMK A01 T03440167  RH  035%=      5-min Rain = 0
KWE2 201924Z 13009KT 34/17 A3011 RMK A01 T03440167  RH  035%=      5-min Rain = 0
KWE2 201925Z 13007KT 35/17 A3011 RMK A01 T03460169  RH  035%=      5-min Rain = 0
KWE2 201926Z 12012KT 35/17 A3011 RMK A01 T03470170  RH  035%=      5-min Rain = 0
KWE2 201927Z 12012KT 35/17 A3011 RMK A01 T03480169  RH  035%=      5-min Rain = 0
KWE2 201928Z 13010KT 35/17 A3011 RMK A01 T03460171  RH  035%=      5-min Rain = 0
KWE2 201929Z 11012KT 35/17 A3011 RMK A01 T03470170  RH  035%=      5-min Rain = 0
KWE2 201930Z 11013KT 35/17 A3011 RMK A01 T03480169  RH  035%=      5-min Rain = 0
KWE2 201931Z 12014KT 35/17 A3011 RMK A01 T03490168  RH  034%=      5-min Rain = 0
KWE2 201932Z 12013KT 35/17 A3011 RMK A01 T03490165  RH  033%=      5-min Rain = 0
KWE2 201933Z 13010KT 35/17 A3011 RMK A01 T03470166  RH  034%=      5-min Rain = 0
KWE2 201934Z 16010KT 35/17 A3011 RMK A01 T03490166  RH  034%=      5-min Rain = 0
KWE2 201935Z 17009KT 35/16 A3011 RMK A01 T03490164  RH  033%=      5-min Rain = 0
KWE2 201936Z 16010KT 35/17 A3011 RMK A01 T03480165  RH  034%=      5-min Rain = 0
KWE2 201937Z 16010KT 35/16 A3011 RMK A01 T03480162  RH  033%=      5-min Rain = 0
KWE2 201938Z 18009KT 35/16 A3011 RMK A01 T03470161  RH  033%=      5-min Rain = 0
KWE2 201939Z 19010KT 35/16 A3011 RMK A01 T03460158  RH  033%=      5-min Rain = 0
KWE2 201940Z 15010KT 35/16 A3011 RMK A01 T03450162  RH  034%=      5-min Rain = 0
KWE2 201941Z 15013KT 35/15 A3011 RMK A01 T03490154  RH  031%=      5-min Rain = 0
KWE2 201942Z 15010KT 35/15 A3011 RMK A01 T03500153  RH  031%=      5-min Rain = 0
KWE2 201943Z 14006KT 35/15 A3011 RMK A01 T03500152  RH  031%=      5-min Rain = 0
KWE2 201944Z 16005KT 35/15 A3011 RMK A01 T03490151  RH  031%=      5-min Rain = 0
KWE2 201945Z 16003KT 35/16 A3011 RMK A01 T03460159  RH  033%=      5-min Rain = 0
KWE2 201946Z 11003KT 35/16 A3011 RMK A01 T03460157  RH  032%=      5-min Rain = 0
KWE2 201947Z 11005G10KT 35/16 A3011 RMK A01 T03450162  RH  034%=      5-min Rain = 0
KWE2 201948Z 12009KT 35/17 A3011 RMK A01 T03450168  RH  035%=      5-min Rain = 0
KWE2 201949Z 11007KT 35/17 A3011 RMK A01 T03460172  RH  035%=      5-min Rain = 0
KWE2 201950Z 12007KT 35/17 A3011 RMK A01 T03480172  RH  035%=      5-min Rain = 0
KWE2 201951Z 13008KT 35/17 A3011 RMK A01 T03480172  RH  035%=      5-min Rain = 0
KWE2 201952Z 14010KT 35/17 A3011 RMK A01 T03500171  RH  035%=      5-min Rain = 0
KWE2 201953Z 16010KT 35/17 A3011 RMK A01 T03520170  RH  034%=      5-min Rain = 0
KWE2 201954Z 16012KT 35/17 A301 RMK A01 T03530168  RH  033%=      5-min Rain = 0
KWE2 201955Z 16011KT 35/17 A301 RMK A01 T03510167  RH  034%=      5-min Rain = 0
KWE2 201956Z 16006KT 35/17 A301 RMK A01 T03480169  RH  035%=      5-min Rain = 0
KWE2 201957Z 16011KT 35/17 A301 RMK A01 T03490170  RH  034%=      5-min Rain = 0
KWE2 201958Z 15009KT 35/17 A301 RMK A01 T03500165  RH  033%=      5-min Rain = 0
KWE2 201959Z 16006KT 35/17 A301 RMK A01 T03490165  RH  034%=      5-min Rain = 0
KWE2 202000Z 17006KT 35/17 A301 RMK A01 T03470171  RH  035%=      5-min Rain = 0
KWE2 202001Z 18005KT 35/17 A301 RMK A01 T03470172  RH  035%=      5-min Rain = 0
KWE2 202002Z 14007KT 35/17 A301 RMK A01 T03460173  RH  036%=      5-min Rain = 0
KWE2 202003Z 15009KT 35/18 A301 RMK A01 T03470177  RH  037%=      5-min Rain = 0
KWE2 202004Z 15012KT 35/18 A301 RMK A01 T03500175  RH  035%=      5-min Rain = 0
KWE2 202005Z 12013KT 35/17 A301 RMK A01 T03520174  RH  035%=      5-min Rain = 0
KWE2 202006Z 12010KT 35/17 A301 RMK A01 T03500173  RH  035%=      5-min Rain = 0
KWE2 202007Z 12012KT 35/17 A301 RMK A01 T03490172  RH  035%=      5-min Rain = 0
KWE2 202008Z 11010KT 35/17 A301 RMK A01 T03500169  RH  034%=      5-min Rain = 0
KWE2 202009Z 11010KT 35/17 A301 RMK A01 T03480170  RH  035%=      5-min Rain = 0
KWE2 202010Z 10006KT 35/17 A301 RMK A01 T03470170  RH  035%=      5-min Rain = 0
KWE2 202011Z 10007KT 35/17 A301 RMK A01 T03470169  RH  035%=      5-min Rain = 0
KWE2 202012Z 13010KT 35/17 A301 RMK A01 T03470170  RH  035%=      5-min Rain = 0
KWE2 202013Z 15012KT 35/17 A301 RMK A01 T03490170  RH  035%=      5-min Rain = 0
KWE2 202014Z 14011KT 35/17 A301 RMK A01 T03510171  RH  035%=      5-min Rain = 0
KWE2 202015Z 15014KT 36/16 A301 RMK A01 T03550161  RH  032%=      5-min Rain = 0
KWE2 202016Z 15010KT 36/16 A301 RMK A01 T03550159  RH  031%=      5-min Rain = 0
KWE2 202017Z 15008KT 35/17 A301 RMK A01 T03540165  RH  033%=      5-min Rain = 0
KWE2 202018Z 14011KT 36/17 A301 RMK A01 T03580167  RH  032%=      5-min Rain = 0
KWE2 202019Z 14010KT 36/16 A301 RMK A01 T03610159  RH  030%=      5-min Rain = 0
KWE2 202020Z 13009KT 36/16 A301 RMK A01 T03590157  RH  030%=      5-min Rain = 0
KWE2 202021Z 14009KT 36/16 A301 RMK A01 T03580163  RH  031%=      5-min Rain = 0
KWE2 202022Z 15008KT 36/17 A301 RMK A01 T03580166  RH  032%=      5-min Rain = 0
KWE2 202023Z 14009KT 36/17 A301 RMK A01 T03570169  RH  033%=      5-min Rain = 0
KWE2 202024Z 16008KT 36/17 A301 RMK A01 T03550169  RH  033%=      5-min Rain = 0
KWE2 202025Z 17006KT 35/17 A301 RMK A01 T03530170  RH  034%=      5-min Rain = 0
KWE2 202026Z 17006KT 35/17 A301 RMK A01 T03510168  RH  034%=      5-min Rain = 0
KWE2 202027Z 18005KT 35/17 A3009 RMK A01 T03500170  RH  035%=      5-min Rain = 0
KWE2 202028Z 16010KT 35/17 A3009 RMK A01 T03490172  RH  035%=      5-min Rain = 0
KWE2 202029Z 15011KT 35/17 A3009 RMK A01 T03500171  RH  034%=      5-min Rain = 0
KWE2 202030Z 13013KT 35/17 A3009 RMK A01 T03530169  RH  034%=      5-min Rain = 0
KWE2 202031Z 13013KT 36/17 A3009 RMK A01 T03550168  RH  033%=      5-min Rain = 0
KWE2 202032Z 14014KT 36/17 A3009 RMK A01 T03560167  RH  033%=      5-min Rain = 0
KWE2 202033Z 15011KT 36/16 A3009 RMK A01 T03560164  RH  032%=      5-min Rain = 0
KWE2 202034Z 13012KT 35/16 A3009 RMK A01 T03540163  RH  032%=      5-min Rain = 0
KWE2 202035Z 12012KT 36/16 A3009 RMK A01 T03560164  RH  032%=      5-min Rain = 0
KWE2 202036Z 13008KT 36/16 A3009 RMK A01 T03560160  RH  031%=      5-min Rain = 0
KWE2 202037Z 10008KT 35/16 A3009 RMK A01 T03530159  RH  031%=      5-min Rain = 0
KWE2 202038Z 10009KT 36/16 A3009 RMK A01 T03550159  RH  031%=      5-min Rain = 0
KWE2 202039Z 11010KT 36/16 A3009 RMK A01 T03550158  RH  031%=      5-min Rain = 0
KWE2 202040Z 12010KT 36/16 A3009 RMK A01 T03560159  RH  031%=      5-min Rain = 0
KWE2 202041Z 13009KT 36/16 A3009 RMK A01 T03590157  RH  030%=      5-min Rain = 0
KWE2 202042Z 12010KT 36/16 A3009 RMK A01 T03590161  RH  031%=      5-min Rain = 0
KWE2 202043Z 13007KT 36/16 A3009 RMK A01 T03590161  RH  031%=      5-min Rain = 0
KWE2 202044Z 18007KT 36/17 A3009 RMK A01 T03590165  RH  032%=      5-min Rain = 0
KWE2 202045Z 15009KT 36/16 A3009 RMK A01 T03590164  RH  032%=      5-min Rain = 0
KWE2 202046Z 13010KT 36/16 A3009 RMK A01 T03590161  RH  031%=      5-min Rain = 0
KWE2 202047Z 12007KT 36/16 A3009 RMK A01 T03600156  RH  030%=      5-min Rain = 0
KWE2 202048Z 12006KT 36/15 A3009 RMK A01 T03580154  RH  030%=      5-min Rain = 0
KWE2 202049Z 13007G13KT 35/16 A3009 RMK A01 T03540157  RH  031%=      5-min Rain = 0
KWE2 202050Z 15014KT 36/15 A3008 RMK A01 T03550154  RH  030%=      5-min Rain = 0
KWE2 202051Z 15013KT 36/15 A3008 RMK A01 T03550150  RH  030%=      5-min Rain = 0
KWE2 202052Z 15008KT 35/15 A3008 RMK A01 T03520150  RH  030%=      5-min Rain = 0
KWE2 202053Z 12007KT 35/15 A3008 RMK A01 T03520152  RH  030%=      5-min Rain = 0
KWE2 202054Z 13012KT 35/15 A3008 RMK A01 T03540152  RH  030%=      5-min Rain = 0
KWE2 202055Z 12011KT 36/15 A3008 RMK A01 T03560153  RH  030%=      5-min Rain = 0
KWE2 202056Z 12011KT 36/15 A3008 RMK A01 T03580153  RH  030%=      5-min Rain = 0
KWE2 202057Z 13010KT 36/16 A3008 RMK A01 T03580155  RH  030%=      5-min Rain = 0
KWE2 202058Z 14009KT 36/16 A3008 RMK A01 T03590156  RH  030%=      5-min Rain = 0
KWE2 202059Z 13007KT 36/16 A3008 RMK A01 T03590158  RH  030%=      5-min Rain = 0
KWE2 202100Z 13012KT 36/15 A3008 RMK A01 T03600151  RH  029%=      5-min Rain = 0
KWE2 202101Z 11010KT 36/14 A3008 RMK A01 T03600140  RH  027%=      5-min Rain = 0
KWE2 202102Z 12009KT 36/14 A3008 RMK A01 T03590141  RH  027%=      5-min Rain = 0
KWE2 202103Z 13008KT 36/14 A3008 RMK A01 T03600138  RH  027%=      5-min Rain = 0
KWE2 202104Z 13007KT 36/14 A3008 RMK A01 T03590141  RH  027%=      5-min Rain = 0
KWE2 202105Z 14007KT 36/14 A3008 RMK A01 T03600144  RH  028%=      5-min Rain = 0
KWE2 202106Z 15009KT 36/15 A3008 RMK A01 T03620148  RH  028%=      5-min Rain = 0
KWE2 202107Z 14010KT 36/15 A3008 RMK A01 T03620145  RH  027%=      5-min Rain = 0
KWE2 202108Z 14009KT 36/14 A3008 RMK A01 T03630138  RH  026%=      5-min Rain = 0
KWE2 202109Z 11007KT 36/14 A3008 RMK A01 T03620140  RH  027%=      5-min Rain = 0
KWE2 202110Z 12005KT 36/14 A3008 RMK A01 T03570139  RH  027%=      5-min Rain = 0
KWE2 202111Z 12008KT 36/14 A3008 RMK A01 T03560143  RH  028%=      5-min Rain = 0
KWE2 202112Z 12010KT 36/15 A3008 RMK A01 T03600145  RH  028%=      5-min Rain = 0
KWE2 202113Z 12011KT 36/15 A3008 RMK A01 T03600147  RH  028%=      5-min Rain = 0
KWE2 202114Z 11009KT 36/15 A3007 RMK A01 T03600145  RH  028%=      5-min Rain = 0
KWE2 202115Z 14007KT 36/14 A3008 RMK A01 T03580143  RH  028%=      5-min Rain = 0
KWE2 202116Z 15009KT 36/15 A3007 RMK A01 T03580147  RH  028%=      5-min Rain = 0
KWE2 202117Z 14013KT 36/15 A3007 RMK A01 T03600148  RH  028%=      5-min Rain = 0
KWE2 202118Z 12008KT 36/15 A3008 RMK A01 T03590147  RH  028%=      5-min Rain = 0
KWE2 202119Z 11005KT 36/15 A3007 RMK A01 T03560145  RH  028%=      5-min Rain = 0
KWE2 202120Z 13007KT 36/14 A3007 RMK A01 T03550144  RH  028%=      5-min Rain = 0
KWE2 202121Z 13011KT 36/15 A3007 RMK A01 T03550149  RH  029%=      5-min Rain = 0
KWE2 202122Z 13012KT 36/15 A3007 RMK A01 T03570148  RH  029%=      5-min Rain = 0
KWE2 202123Z 13011KT 36/15 A3007 RMK A01 T03580148  RH  029%=      5-min Rain = 0
KWE2 202124Z 15011KT 36/15 A3007 RMK A01 T03580148  RH  029%=      5-min Rain = 0
KWE2 202125Z 14011KT 36/15 A3007 RMK A01 T03580148  RH  029%=      5-min Rain = 0
KWE2 202126Z 15009KT 36/15 A3007 RMK A01 T03560145  RH  028%=      5-min Rain = 0
KWE2 202127Z 15007KT 36/15 A3007 RMK A01 T03550147  RH  029%=      5-min Rain = 0
KWE2 202128Z 14010KT 36/15 A3007 RMK A01 T03550145  RH  029%=      5-min Rain = 0
KWE2 202129Z 14008KT 36/14 A3007 RMK A01 T03550135  RH  027%=      5-min Rain = 0
KWE2 202130Z 14008KT 36/15 A3007 RMK A01 T03560145  RH  028%=      5-min Rain = 0
KWE2 202131Z 16010KT 36/15 A3007 RMK A01 T03590150  RH  029%=      5-min Rain = 0
KWE2 202132Z 15010KT 36/14 A3007 RMK A01 T03600144  RH  028%=      5-min Rain = 0
KWE2 202133Z 15007KT 36/14 A3007 RMK A01 T03580139  RH  027%=      5-min Rain = 0
KWE2 202134Z 13010KT 36/14 A3007 RMK A01 T03560138  RH  027%=      5-min Rain = 0
KWE2 202135Z 13010KT 36/14 A3007 RMK A01 T03580136  RH  026%=      5-min Rain = 0
KWE2 202136Z 13009KT 36/14 A3007 RMK A01 T03590137  RH  027%=      5-min Rain = 0
KWE2 202137Z 13009KT 36/14 A3007 RMK A01 T03600141  RH  027%=      5-min Rain = 0
KWE2 202138Z 14007KT 36/15 A3007 RMK A01 T03600145  RH  028%=      5-min Rain = 0
KWE2 202139Z 14008KT 36/15 A3007 RMK A01 T03600152  RH  029%=      5-min Rain = 0
KWE2 202140Z 14007KT 36/15 A3007 RMK A01 T03600150  RH  029%=      5-min Rain = 0
KWE2 202141Z 12008KT 36/15 A3007 RMK A01 T03590154  RH  030%=      5-min Rain = 0
KWE2 202142Z 14008KT 36/16 A3007 RMK A01 T03570159  RH  031%=      5-min Rain = 0
KWE2 202143Z 16007KT 36/16 A3007 RMK A01 T03560162  RH  032%=      5-min Rain = 0
KWE2 202144Z 15005KT 36/16 A3007 RMK A01 T03550158  RH  031%=      5-min Rain = 0
KWE2 202145Z 13007G12KT 35/16 A3007 RMK A01 T03540161  RH  032%=      5-min Rain = 0
KWE2 202146Z 14012KT 36/16 A3007 RMK A01 T03560157  RH  031%=      5-min Rain = 0
KWE2 202147Z 14009KT 36/15 A3007 RMK A01 T03580153  RH  029%=      5-min Rain = 0
KWE2 202148Z 13011KT 36/15 A3007 RMK A01 T03590150  RH  029%=      5-min Rain = 0
KWE2 202149Z 12010KT 36/15 A3007 RMK A01 T03590149  RH  029%=      5-min Rain = 0
KWE2 202150Z 13011KT 36/15 A3006 RMK A01 T03600148  RH  028%=      5-min Rain = 0
KWE2 202151Z 11011KT 36/14 A3006 RMK A01 T03620137  RH  026%=      5-min Rain = 0
KWE2 202152Z 14009KT 36/14 A3006 RMK A01 T03610139  RH  027%=      5-min Rain = 0
KWE2 202153Z 12007KT 36/14 A3006 RMK A01 T03600139  RH  027%=      5-min Rain = 0
KWE2 202154Z 14011KT 36/13 A3006 RMK A01 T03610132  RH  025%=      5-min Rain = 0
KWE2 202155Z 14009KT 36/13 A3006 RMK A01 T03610128  RH  025%=      5-min Rain = 0
KWE2 202156Z 15011KT 36/14 A3006 RMK A01 T03610140  RH  027%=      5-min Rain = 0
KWE2 202157Z 16009KT 36/15 A3006 RMK A01 T03590146  RH  028%=      5-min Rain = 0
KWE2 202158Z 16008KT 36/15 A3006 RMK A01 T03590149  RH  029%=      5-min Rain = 0
KWE2 202159Z 14009KT 36/15 A3006 RMK A01 T03570147  RH  029%=      5-min Rain = 0
KWE2 202200Z 13011KT 36/15 A3006 RMK A01 T03570148  RH  029%=      5-min Rain = 0
KWE2 202201Z 15010KT 36/15 A3006 RMK A01 T03590150  RH  029%=      5-min Rain = 0
KWE2 202202Z 16009KT 36/15 A3006 RMK A01 T03590149  RH  029%=      5-min Rain = 0
KWE2 202203Z 17006KT 36/15 A3006 RMK A01 T03550147  RH  029%=      5-min Rain = 0
KWE2 202204Z 14006KT 35/15 A3006 RMK A01 T03530151  RH  030%=      5-min Rain = 0
KWE2 202205Z 12009KT 36/15 A3006 RMK A01 T03550150  RH  030%=      5-min Rain = 0
KWE2 202206Z 14007KT 36/15 A3006 RMK A01 T03560149  RH  029%=      5-min Rain = 0
KWE2 202207Z 14008KT 36/15 A3005 RMK A01 T03570149  RH  029%=      5-min Rain = 0
KWE2 202208Z 16008KT 36/15 A3005 RMK A01 T03570150  RH  029%=      5-min Rain = 0
KWE2 202209Z 18006KT 36/15 A3005 RMK A01 T03570151  RH  029%=      5-min Rain = 0
KWE2 202210Z 15007KT 36/15 A3005 RMK A01 T03560154  RH  030%=      5-min Rain = 0
KWE2 202211Z 15012KT 36/16 A3005 RMK A01 T03550157  RH  031%=      5-min Rain = 0
KWE2 202212Z 14011KT 36/16 A3005 RMK A01 T03560157  RH  031%=      5-min Rain = 0
KWE2 202213Z 13008KT 36/16 A3005 RMK A01 T03560160  RH  031%=      5-min Rain = 0
KWE2 202214Z 15006KT 36/16 A3005 RMK A01 T03580159  RH  031%=      5-min Rain = 0
KWE2 202215Z 14006KT 36/16 A3005 RMK A01 T03590161  RH  031%=      5-min Rain = 0
KWE2 202216Z 14008KT 36/16 A3005 RMK A01 T03590157  RH  030%=      5-min Rain = 0
KWE2 202217Z 13010KT 36/16 A3005 RMK A01 T03600157  RH  030%=      5-min Rain = 0
KWE2 202218Z 14012KT 36/15 A3005 RMK A01 T03620150  RH  028%=      5-min Rain = 0
KWE2 202219Z 14008KT 36/15 A3005 RMK A01 T03610150  RH  029%=      5-min Rain = 0
KWE2 202220Z 13007KT 36/15 A3005 RMK A01 T03600146  RH  028%=      5-min Rain = 0
KWE2 202221Z 13011KT 36/15 A3005 RMK A01 T03590145  RH  028%=      5-min Rain = 0
KWE2 202222Z 14011KT 36/14 A3005 RMK A01 T03600141  RH  027%=      5-min Rain = 0
KWE2 202223Z 14010KT 36/14 A3005 RMK A01 T03590141  RH  027%=      5-min Rain = 0
KWE2 202224Z 15007KT 36/14 A3005 RMK A01 T03590140  RH  027%=      5-min Rain = 0
KWE2 202225Z 16006KT 36/14 A3005 RMK A01 T03580144  RH  028%=      5-min Rain = 0
KWE2 202226Z 16006KT 36/14 A3005 RMK A01 T03570141  RH  027%=      5-min Rain = 0
KWE2 202227Z 15007KT 36/14 A3005 RMK A01 T03570137  RH  027%=      5-min Rain = 0
KWE2 202228Z 13010KT 36/14 A3005 RMK A01 T03580140  RH  027%=      5-min Rain = 0
KWE2 202229Z 12008KT 36/13 A3005 RMK A01 T03580134  RH  026%=      5-min Rain = 0
KWE2 202230Z 15007KT 36/14 A3005 RMK A01 T03570136  RH  027%=      5-min Rain = 0
KWE2 202231Z 14006KT 36/14 A3005 RMK A01 T03570135  RH  026%=      5-min Rain = 0
KWE2 202232Z 12008KT 36/14 A3005 RMK A01 T03590136  RH  026%=      5-min Rain = 0
KWE2 202233Z 11005KT 36/13 A3005 RMK A01 T03600133  RH  026%=      5-min Rain = 0
KWE2 202234Z 11006KT 36/14 A3005 RMK A01 T03590135  RH  026%=      5-min Rain = 0
KWE2 202235Z 12007KT 36/14 A3005 RMK A01 T03590136  RH  026%=      5-min Rain = 0
KWE2 202236Z 12009KT 36/14 A3005 RMK A01 T03600137  RH  026%=      5-min Rain = 0
KWE2 202237Z 13009KT 36/14 A3005 RMK A01 T03600137  RH  026%=      5-min Rain = 0
KWE2 202238Z 13011G18KT 36/14 A3005 RMK A01 T03610138  RH  026%=      5-min Rain = 0
KWE2 202239Z 14011KT 36/13 A3005 RMK A01 T03620133  RH  025%=      5-min Rain = 0
KWE2 202240Z 14011KT 36/13 A3005 RMK A01 T03610134  RH  026%=      5-min Rain = 0
KWE2 202241Z 13008G14KT 36/14 A3005 RMK A01 T03610139  RH  027%=      5-min Rain = 0
KWE2 202242Z 11011KT 36/14 A3005 RMK A01 T03620135  RH  026%=      5-min Rain = 0
KWE2 202243Z 11009KT 36/14 A3005 RMK A01 T03620136  RH  026%=      5-min Rain = 0
KWE2 202244Z 13010KT 36/14 A3005 RMK A01 T03620135  RH  026%=      5-min Rain = 0
KWE2 202245Z 13009KT 36/13 A3005 RMK A01 T03610131  RH  025%=      5-min Rain = 0
KWE2 202246Z 12006KT 36/13 A3005 RMK A01 T03590134  RH  026%=      5-min Rain = 0
KWE2 202247Z 11006KT 36/13 A3005 RMK A01 T03590133  RH  026%=      5-min Rain = 0
KWE2 202248Z 11009KT 36/14 A3005 RMK A01 T03590136  RH  026%=      5-min Rain = 0
KWE2 202249Z 13010KT 36/14 A3005 RMK A01 T03600135  RH  026%=      5-min Rain = 0
KWE2 202250Z 15007KT 36/13 A3005 RMK A01 T03610134  RH  026%=      5-min Rain = 0
KWE2 202251Z 15006KT 36/13 A3005 RMK A01 T03600134  RH  026%=      5-min Rain = 0
KWE2 202252Z 14006KT 36/14 A3005 RMK A01 T03580135  RH  026%=      5-min Rain = 0
KWE2 202253Z 13004KT 36/13 A3005 RMK A01 T03570133  RH  026%=      5-min Rain = 0
KWE2 202254Z 14009KT 36/14 A3005 RMK A01 T03580137  RH  027%=      5-min Rain = 0
KWE2 202255Z 13011KT 36/14 A3005 RMK A01 T03580137  RH  027%=      5-min Rain = 0
KWE2 202256Z 11011KT 36/14 A3005 RMK A01 T03590135  RH  026%=      5-min Rain = 0
KWE2 202257Z 12007KT 36/13 A3005 RMK A01 T03590133  RH  026%=      5-min Rain = 0
KWE2 202258Z 12006KT 36/14 A3005 RMK A01 T03580139  RH  027%=      5-min Rain = 0
KWE2 202259Z 14006KT 36/14 A3005 RMK A01 T03600139  RH  027%=      5-min Rain = 0
KWE2 202300Z 15006KT 36/14 A3005 RMK A01 T03610138  RH  026%=      5-min Rain = 0
KWE2 202301Z 14006KT 36/14 A3005 RMK A01 T03630140  RH  027%=      5-min Rain = 0
KWE2 202302Z 14006KT 36/14 A3005 RMK A01 T03630138  RH  026%=      5-min Rain = 0
KWE2 202303Z 14009KT 36/14 A3005 RMK A01 T03630142  RH  027%=      5-min Rain = 0
KWE2 202304Z 13009KT 36/14 A3005 RMK A01 T03630142  RH  027%=      5-min Rain = 0
KWE2 202305Z 13010KT 36/14 A3005 RMK A01 T03630137  RH  026%=      5-min Rain = 0
KWE2 202306Z 14010KT 36/14 A3005 RMK A01 T03630136  RH  026%=      5-min Rain = 0
KWE2 202307Z 14008KT 36/13 A3005 RMK A01 T03610134  RH  026%=      5-min Rain = 0
KWE2 202308Z 14007KT 36/13 A3005 RMK A01 T03600133  RH  026%=      5-min Rain = 0
KWE2 202309Z 14008G13KT 36/14 A3005 RMK A01 T03590141  RH  027%=      5-min Rain = 0
KWE2 202310Z 14012KT 36/14 A3005 RMK A01 T03590139  RH  027%=      5-min Rain = 0
KWE2 202311Z 14011KT 36/14 A3005 RMK A01 T03600140  RH  027%=      5-min Rain = 0
KWE2 202312Z 14010KT 36/15 A3005 RMK A01 T03600145  RH  028%=      5-min Rain = 0
KWE2 202313Z 13012KT 36/14 A3005 RMK A01 T03600141  RH  027%=      5-min Rain = 0
KWE2 202314Z 14010KT 36/14 A3005 RMK A01 T03590138  RH  027%=      5-min Rain = 0
KWE2 202315Z 15011KT 36/14 A3005 RMK A01 T03590137  RH  026%=      5-min Rain = 0
KWE2 202316Z 15010KT 36/14 A3005 RMK A01 T03580141  RH  027%=      5-min Rain = 0
KWE2 202317Z 14013KT 36/14 A3005 RMK A01 T03580135  RH  026%=      5-min Rain = 0
KWE2 202318Z 15011KT 36/13 A3005 RMK A01 T03570133  RH  026%=      5-min Rain = 0
KWE2 202319Z 14010KT 36/13 A3005 RMK A01 T03560133  RH  026%=      5-min Rain = 0
KWE2 202320Z 16012KT 36/14 A3005 RMK A01 T03570136  RH  027%=      5-min Rain = 0
KWE2 202321Z 16012KT 36/13 A3005 RMK A01 T03570133  RH  026%=      5-min Rain = 0
KWE2 202322Z 15012KT 36/13 A3005 RMK A01 T03550132  RH  026%=      5-min Rain = 0
KWE2 202323Z 14011KT 35/13 A3005 RMK A01 T03540132  RH  026%=      5-min Rain = 0
KWE2 202324Z 14012KT 36/13 A3005 RMK A01 T03550132  RH  026%=      5-min Rain = 0
KWE2 202325Z 13012KT 36/14 A3005 RMK A01 T03560135  RH  027%=      5-min Rain = 0
KWE2 202326Z 13011KT 36/13 A3005 RMK A01 T03570133  RH  026%=      5-min Rain = 0
KWE2 202327Z 13009KT 36/14 A3005 RMK A01 T03570135  RH  026%=      5-min Rain = 0
KWE2 202328Z 13009KT 36/13 A3005 RMK A01 T03570134  RH  026%=      5-min Rain = 0
KWE2 202329Z 12008KT 36/13 A3005 RMK A01 T03570132  RH  026%=      5-min Rain = 0
KWE2 202330Z 12008KT 36/13 A3005 RMK A01 T03570131  RH  026%=      5-min Rain = 0
KWE2 202331Z 13010KT 36/13 A3005 RMK A01 T03550134  RH  026%=      5-min Rain = 0
KWE2 202332Z 13010KT 36/13 A3005 RMK A01 T03550134  RH  027%=      5-min Rain = 0
KWE2 202333Z 13010KT 36/14 A3005 RMK A01 T03550138  RH  027%=      5-min Rain = 0
KWE2 202334Z 15013KT 36/14 A3005 RMK A01 T03560137  RH  027%=      5-min Rain = 0
KWE2 202335Z 17010KT 36/13 A3005 RMK A01 T03560134  RH  026%=      5-min Rain = 0
KWE2 202336Z 17008KT 35/14 A3005 RMK A01 T03530135  RH  027%=      5-min Rain = 0
KWE2 202337Z 16008KT 35/14 A3005 RMK A01 T03530136  RH  027%=      5-min Rain = 0
KWE2 202338Z 15011KT 35/14 A3005 RMK A01 T03530138  RH  028%=      5-min Rain = 0
KWE2 202339Z 13011KT 35/14 A3005 RMK A01 T03540136  RH  027%=      5-min Rain = 0
KWE2 202340Z 13009KT 35/13 A3005 RMK A01 T03540132  RH  026%=      5-min Rain = 0
KWE2 202341Z 15009KT 36/14 A3005 RMK A01 T03550138  RH  027%=      5-min Rain = 0
KWE2 202342Z 15009KT 36/14 A3005 RMK A01 T03550136  RH  027%=      5-min Rain = 0
KWE2 202343Z 15010KT 36/14 A3005 RMK A01 T03550137  RH  027%=      5-min Rain = 0
KWE2 202344Z 15009KT 35/14 A3005 RMK A01 T03540138  RH  027%=      5-min Rain = 0
KWE2 202345Z 15011KT 35/14 A3005 RMK A01 T03540139  RH  028%=      5-min Rain = 0
KWE2 202346Z 16010KT 35/14 A3005 RMK A01 T03540135  RH  027%=      5-min Rain = 0
KWE2 202347Z 15010KT 35/14 A3005 RMK A01 T03530135  RH  027%=      5-min Rain = 0
KWE2 202348Z 16009KT 35/14 A3005 RMK A01 T03520136  RH  027%=      5-min Rain = 0
KWE2 202349Z 15009KT 35/14 A3005 RMK A01 T03510140  RH  028%=      5-min Rain = 0
KWE2 202350Z 15008KT 35/14 A3005 RMK A01 T03510138  RH  028%=      5-min Rain = 0
KWE2 202351Z 15009KT 35/14 A3005 RMK A01 T03510141  RH  028%=      5-min Rain = 0
KWE2 202352Z 16009KT 35/14 A3005 RMK A01 T03510138  RH  028%=      5-min Rain = 0
KWE2 202353Z 15009KT 35/14 A3005 RMK A01 T03510137  RH  028%=      5-min Rain = 0
KWE2 202354Z 14009KT 35/14 A3005 RMK A01 T03510139  RH  028%=      5-min Rain = 0
KWE2 202355Z 14010KT 35/14 A3005 RMK A01 T03520136  RH  027%=      5-min Rain = 0
KWE2 202356Z 13010KT 35/14 A3005 RMK A01 T03520136  RH  027%=      5-min Rain = 0
KWE2 202357Z 14010KT 35/13 A3005 RMK A01 T03520134  RH  027%=      5-min Rain = 0
KWE2 202358Z 15009KT 35/13 A3005 RMK A01 T03520134  RH  027%=      5-min Rain = 0
KWE2 202359Z 15009KT 35/13 A3005 RMK A01 T03510133  RH  027%=      5-min Rain = 0
KWE2 210000Z 16007KT 35/14 A3005 RMK A01 T03510135  RH  027%=      5-min Rain = 0
KWE2 210001Z 15008KT 35/14 A3005 RMK A01 T03500138  RH  028%=      5-min Rain = 0
KWE2 210002Z 15010KT 35/14 A3005 RMK A01 T03500139  RH  028%=      5-min Rain = 0
KWE2 210003Z 15010KT 35/13 A3005 RMK A01 T03500134  RH  027%=      5-min Rain = 0
KWE2 210004Z 14012KT 35/13 A3005 RMK A01 T03500133  RH  027%=      5-min Rain = 0
KWE2 210005Z 14010KT 35/13 A3005 RMK A01 T03500133  RH  027%=      5-min Rain = 0
KWE2 210006Z 15012KT 35/13 A3005 RMK A01 T03500133  RH  027%=      5-min Rain = 0
KWE2 210007Z 16011KT 35/13 A3005 RMK A01 T03480132  RH  027%=      5-min Rain = 0
KWE2 210008Z 16010KT 35/13 A3005 RMK A01 T03470129  RH  027%=      5-min Rain = 0
KWE2 210009Z 16009KT 35/13 A3005 RMK A01 T03470132  RH  027%=      5-min Rain = 0
KWE2 210010Z 16008KT 35/13 A3005 RMK A01 T03460134  RH  028%=      5-min Rain = 0
KWE2 210011Z 15012KT 35/14 A3005 RMK A01 T03460135  RH  028%=      5-min Rain = 0
KWE2 210012Z 15012KT 35/14 A3005 RMK A01 T03460136  RH  028%=      5-min Rain = 0
KWE2 210013Z 15008KT 35/14 A3005 RMK A01 T03460137  RH  028%=      5-min Rain = 0
KWE2 210014Z 15007KT 35/14 A3005 RMK A01 T03460139  RH  029%=      5-min Rain = 0
KWE2 210015Z 14007KT 35/14 A3005 RMK A01 T03460141  RH  029%=      5-min Rain = 0
KWE2 210016Z 15006KT 35/14 A3005 RMK A01 T03460139  RH  029%=      5-min Rain = 0
KWE2 210017Z 15006KT 35/14 A3005 RMK A01 T03460142  RH  029%=      5-min Rain = 0
KWE2 210018Z 16009KT 35/14 A3005 RMK A01 T03460143  RH  030%=      5-min Rain = 0
KWE2 210019Z 16009KT 34/14 A3005 RMK A01 T03440136  RH  029%=      5-min Rain = 0
KWE2 210020Z 15008KT 34/14 A3005 RMK A01 T03430135  RH  029%=      5-min Rain = 0
KWE2 210021Z 15008KT 34/14 A3005 RMK A01 T03420135  RH  029%=      5-min Rain = 0
KWE2 210022Z 16006KT 34/14 A3005 RMK A01 T03410136  RH  029%=      5-min Rain = 0
KWE2 210023Z 15009KT 34/14 A3005 RMK A01 T03400136  RH  029%=      5-min Rain = 0
KWE2 210024Z 15009KT 34/13 A3005 RMK A01 T03390133  RH  029%=      5-min Rain = 0
KWE2 210025Z 16008KT 34/13 A3005 RMK A01 T03390133  RH  029%=      5-min Rain = 0
KWE2 210026Z 16010KT 34/14 A3005 RMK A01 T03390136  RH  029%=      5-min Rain = 0
KWE2 210027Z 17011KT 34/13 A3005 RMK A01 T03390130  RH  028%=      5-min Rain = 0
KWE2 210028Z 17008KT 34/13 A3005 RMK A01 T03400130  RH  028%=      5-min Rain = 0
KWE2 210029Z 17008KT 34/13 A3005 RMK A01 T03400133  RH  029%=      5-min Rain = 0
KWE2 210030Z 16008KT 34/13 A3005 RMK A01 T03400133  RH  029%=      5-min Rain = 0
KWE2 210031Z 16008KT 34/13 A3005 RMK A01 T03390134  RH  029%=      5-min Rain = 0
KWE2 210032Z 16009KT 34/13 A3005 RMK A01 T03380132  RH  029%=      5-min Rain = 0
KWE2 210033Z 15008KT 34/13 A3005 RMK A01 T03390134  RH  029%=      5-min Rain = 0
KWE2 210034Z 16008KT 34/13 A3005 RMK A01 T03380134  RH  029%=      5-min Rain = 0
KWE2 210035Z 15008KT 34/14 A3005 RMK A01 T03390137  RH  030%=      5-min Rain = 0
KWE2 210036Z 15008KT 34/14 A3005 RMK A01 T03380137  RH  030%=      5-min Rain = 0
KWE2 210037Z 14008KT 34/14 A3005 RMK A01 T03380136  RH  030%=      5-min Rain = 0
KWE2 210038Z 14008KT 34/13 A3005 RMK A01 T03380134  RH  029%=      5-min Rain = 0
KWE2 210039Z 15010KT 34/13 A3005 RMK A01 T03380133  RH  029%=      5-min Rain = 0
KWE2 210040Z 15009KT 34/13 A3005 RMK A01 T03380133  RH  029%=      5-min Rain = 0
KWE2 210041Z 15006KT 34/14 A3005 RMK A01 T03370137  RH  030%=      5-min Rain = 0
KWE2 210042Z 15007KT 34/14 A3005 RMK A01 T03360138  RH  030%=      5-min Rain = 0
KWE2 210043Z 15007KT 34/14 A3005 RMK A01 T03350138  RH  030%=      5-min Rain = 0
KWE2 210044Z 14006KT 33/14 A3005 RMK A01 T03340137  RH  030%=      5-min Rain = 0
KWE2 210045Z 15007KT 33/14 A3005 RMK A01 T03340135  RH  030%=      5-min Rain = 0
KWE2 210046Z 15007KT 33/14 A3005 RMK A01 T03340137  RH  030%=      5-min Rain = 0
KWE2 210047Z 15007KT 33/14 A3005 RMK A01 T03340137  RH  030%=      5-min Rain = 0
KWE2 210048Z 15007KT 33/14 A3005 RMK A01 T03340137  RH  030%=      5-min Rain = 0
KWE2 210049Z 15008KT 33/14 A3005 RMK A01 T03340138  RH  031%=      5-min Rain = 0
KWE2 210050Z 15008KT 33/14 A3005 RMK A01 T03330138  RH  031%=      5-min Rain = 0
KWE2 210051Z 15008KT 33/14 A3005 RMK A01 T03320136  RH  030%=      5-min Rain = 0
KWE2 210052Z 15008KT 33/14 A3005 RMK A01 T03320137  RH  031%=      5-min Rain = 0
KWE2 210053Z 15008KT 33/14 A3005 RMK A01 T03310138  RH  031%=      5-min Rain = 0
KWE2 210054Z 15007KT 33/14 A3005 RMK A01 T03300136  RH  031%=      5-min Rain = 0
KWE2 210055Z 15007KT 33/14 A3005 RMK A01 T03300139  RH  031%=      5-min Rain = 0
KWE2 210056Z 15007KT 33/14 A3005 RMK A01 T03290138  RH  031%=      5-min Rain = 0
KWE2 210057Z 15007KT 33/14 A3005 RMK A01 T03290139  RH  032%=      5-min Rain = 0
KWE2 210058Z 15006KT 33/14 A3005 RMK A01 T03280140  RH  032%=      5-min Rain = 0
KWE2 210059Z 15007KT 33/14 A3005 RMK A01 T03270140  RH  032%=      5-min Rain = 0
KWE2 210100Z 15008KT 33/14 A3005 RMK A01 T03270139  RH  032%=      5-min Rain = 0
KWE2 210101Z 16007KT 33/14 A3005 RMK A01 T03270139  RH  032%=      5-min Rain = 0
KWE2 210102Z 16007KT 33/14 A3005 RMK A01 T03260138  RH  032%=      5-min Rain = 0
KWE2 210103Z 16007KT 33/14 A3005 RMK A01 T03250138  RH  032%=      5-min Rain = 0
KWE2 210104Z 16007KT 33/14 A3005 RMK A01 T03250137  RH  032%=      5-min Rain = 0
KWE2 210105Z 16006KT 33/14 A3005 RMK A01 T03250138  RH  032%=      5-min Rain = 0
KWE2 210106Z 16007KT 32/14 A3005 RMK A01 T03240136  RH  032%=      5-min Rain = 0
KWE2 210107Z 16007KT 32/14 A3005 RMK A01 T03230135  RH  032%=      5-min Rain = 0
KWE2 210108Z 16008KT 32/13 A3005 RMK A01 T03230134  RH  032%=      5-min Rain = 0
KWE2 210109Z 16007KT 32/13 A3005 RMK A01 T03230134  RH  032%=      5-min Rain = 0
KWE2 210110Z 16007KT 32/13 A3005 RMK A01 T03230134  RH  032%=      5-min Rain = 0
KWE2 210111Z 16007KT 32/13 A3005 RMK A01 T03230134  RH  032%=      5-min Rain = 0
KWE2 210112Z 16006KT 32/14 A3005 RMK A01 T03220135  RH  032%=      5-min Rain = 0
KWE2 210113Z 16006KT 32/14 A3005 RMK A01 T03210135  RH  032%=      5-min Rain = 0
KWE2 210114Z 16006KT 32/14 A3006 RMK A01 T03210136  RH  033%=      5-min Rain = 0
KWE2 210115Z 16006KT 32/14 A3006 RMK A01 T03190136  RH  033%=      5-min Rain = 0
KWE2 210116Z 16006KT 32/14 A3006 RMK A01 T03180136  RH  033%=      5-min Rain = 0
KWE2 210117Z 16006KT 32/14 A3006 RMK A01 T03180136  RH  033%=      5-min Rain = 0
KWE2 210118Z 16006KT 32/14 A3006 RMK A01 T03170136  RH  033%=      5-min Rain = 0
KWE2 210119Z 16006KT 32/14 A3006 RMK A01 T03160136  RH  033%=      5-min Rain = 0
KWE2 210120Z 16006KT 32/14 A3006 RMK A01 T03160136  RH  034%=      5-min Rain = 0
KWE2 210121Z 16006KT 32/14 A3006 RMK A01 T03150136  RH  034%=      5-min Rain = 0
KWE2 210122Z 16006KT 31/14 A3006 RMK A01 T03140135  RH  034%=      5-min Rain = 0
KWE2 210123Z 16005KT 31/14 A3006 RMK A01 T03140135  RH  034%=      5-min Rain = 0
KWE2 210124Z 16006KT 31/14 A3006 RMK A01 T03140136  RH  034%=      5-min Rain = 0
KWE2 210125Z 16005KT 31/14 A3006 RMK A01 T03130137  RH  034%=      5-min Rain = 0
KWE2 210126Z 16006KT 31/14 A3006 RMK A01 T03120136  RH  034%=      5-min Rain = 0
KWE2 210127Z 16006KT 31/14 A3006 RMK A01 T03120136  RH  034%=      5-min Rain = 0
KWE2 210128Z 16006KT 31/14 A3006 RMK A01 T03120136  RH  034%=      5-min Rain = 0
KWE2 210129Z 16006KT 31/14 A3006 RMK A01 T03110136  RH  034%=      5-min Rain = 0
KWE2 210130Z 16006KT 31/14 A3006 RMK A01 T03100137  RH  035%=      5-min Rain = 0
KWE2 210131Z 15005KT 31/14 A3006 RMK A01 T03090137  RH  035%=      5-min Rain = 0
KWE2 210132Z 15005KT 31/14 A3006 RMK A01 T03080137  RH  035%=      5-min Rain = 0
KWE2 210133Z 15005KT 31/14 A3006 RMK A01 T03070137  RH  036%=      5-min Rain = 0
KWE2 210134Z 14005KT 31/14 A3006 RMK A01 T03060137  RH  036%=      5-min Rain = 0
KWE2 210135Z 15005KT 31/14 A3006 RMK A01 T03050137  RH  036%=      5-min Rain = 0
KWE2 210136Z 15005KT 30/14 A3006 RMK A01 T03040138  RH  036%=      5-min Rain = 0
KWE2 210137Z 15005KT 30/14 A3006 RMK A01 T03040138  RH  036%=      5-min Rain = 0
KWE2 210138Z 15005KT 30/14 A3006 RMK A01 T03030138  RH  037%=      5-min Rain = 0
KWE2 210139Z 15005KT 30/14 A3006 RMK A01 T03020138  RH  037%=      5-min Rain = 0
KWE2 210140Z 15006KT 30/14 A3006 RMK A01 T03010138  RH  037%=      5-min Rain = 0
KWE2 210141Z 15006KT 30/14 A3006 RMK A01 T03000139  RH  037%=      5-min Rain = 0
KWE2 210142Z 15006KT 30/14 A3006 RMK A01 T02990138  RH  037%=      5-min Rain = 0
KWE2 210143Z 15006KT 30/14 A3006 RMK A01 T02980139  RH  038%=      5-min Rain = 0
KWE2 210144Z 15006KT 30/14 A3006 RMK A01 T02980139  RH  038%=      5-min Rain = 0
KWE2 210145Z 15006KT 30/14 A3007 RMK A01 T02960138  RH  038%=      5-min Rain = 0
KWE2 210146Z 15006KT 30/14 A3007 RMK A01 T02960138  RH  038%=      5-min Rain = 0
KWE2 210147Z 16006KT 30/14 A3007 RMK A01 T02950138  RH  038%=      5-min Rain = 0
KWE2 210148Z 16006KT 29/14 A3007 RMK A01 T02940138  RH  038%=      5-min Rain = 0
KWE2 210149Z 16007KT 29/14 A3007 RMK A01 T02940138  RH  038%=      5-min Rain = 0
KWE2 210150Z 16007KT 29/14 A3007 RMK A01 T02930138  RH  038%=      5-min Rain = 0
KWE2 210151Z 16006KT 29/14 A3007 RMK A01 T02940138  RH  038%=      5-min Rain = 0
KWE2 210152Z 16006KT 29/14 A3007 RMK A01 T02930137  RH  038%=      5-min Rain = 0
KWE2 210153Z 15006KT 29/14 A3007 RMK A01 T02940137  RH  038%=      5-min Rain = 0
KWE2 210154Z 15007KT 29/14 A3007 RMK A01 T02930137  RH  038%=      5-min Rain = 0
KWE2 210155Z 15006KT 29/14 A3007 RMK A01 T02940138  RH  038%=      5-min Rain = 0
KWE2 210156Z 15006KT 29/14 A3007 RMK A01 T02930138  RH  039%=      5-min Rain = 0
KWE2 210157Z 15006KT 29/14 A3007 RMK A01 T02920138  RH  039%=      5-min Rain = 0
KWE2 210158Z 15006KT 29/14 A3007 RMK A01 T02910137  RH  039%=      5-min Rain = 0
KWE2 210159Z 15005KT 29/14 A3007 RMK A01 T02910138  RH  039%=      5-min Rain = 0
KWE2 210200Z 14005KT 29/14 A3007 RMK A01 T02900138  RH  039%=      5-min Rain = 0
KWE2 210201Z 14005KT 29/14 A3007 RMK A01 T02890138  RH  040%=      5-min Rain = 0
KWE2 210202Z 14004KT 29/14 A3007 RMK A01 T02880138  RH  040%=      5-min Rain = 0
KWE2 210203Z 14005KT 29/14 A3007 RMK A01 T02860139  RH  040%=      5-min Rain = 0
KWE2 210204Z 15005KT 29/14 A3007 RMK A01 T02850137  RH  040%=      5-min Rain = 0
KWE2 210205Z 15005KT 28/14 A3007 RMK A01 T02840136  RH  040%=      5-min Rain = 0
KWE2 210206Z 15006KT 28/14 A3007 RMK A01 T02840137  RH  040%=      5-min Rain = 0
KWE2 210207Z 15006KT 28/14 A3007 RMK A01 T02840137  RH  040%=      5-min Rain = 0
KWE2 210208Z 15006KT 28/14 A3007 RMK A01 T02840137  RH  040%=      5-min Rain = 0
KWE2 210209Z 15006KT 28/14 A3007 RMK A01 T02840137  RH  040%=      5-min Rain = 0
KWE2 210210Z 15006KT 28/14 A3007 RMK A01 T02840137  RH  040%=      5-min Rain = 0
KWE2 210211Z 15006KT 28/14 A3007 RMK A01 T02840138  RH  041%=      5-min Rain = 0
KWE2 210212Z 15006KT 28/14 A3007 RMK A01 T02840137  RH  041%=      5-min Rain = 0
KWE2 210213Z 13005KT 28/14 A3007 RMK A01 T02840138  RH  041%=      5-min Rain = 0
KWE2 210214Z 13005KT 28/14 A3007 RMK A01 T02830137  RH  041%=      5-min Rain = 0
KWE2 210215Z 14006KT 28/14 A3007 RMK A01 T02810137  RH  041%=      5-min Rain = 0
KWE2 210216Z 14006KT 28/14 A3007 RMK A01 T02800137  RH  041%=      5-min Rain = 0
KWE2 210217Z 14006KT 28/14 A3007 RMK A01 T02800137  RH  041%=      5-min Rain = 0
KWE2 210218Z 14007KT 28/14 A3007 RMK A01 T02790137  RH  042%=      5-min Rain = 0
KWE2 210219Z 14007KT 28/14 A3007 RMK A01 T02790138  RH  042%=      5-min Rain = 0
KWE2 210220Z 13007KT 28/14 A3008 RMK A01 T02780138  RH  042%=      5-min Rain = 0
KWE2 210221Z 14008KT 28/14 A3008 RMK A01 T02780139  RH  042%=      5-min Rain = 0
KWE2 210222Z 14007KT 28/14 A3008 RMK A01 T02780139  RH  042%=      5-min Rain = 0
KWE2 210223Z 14008KT 28/14 A3008 RMK A01 T02790139  RH  042%=      5-min Rain = 0
KWE2 210224Z 14008KT 28/14 A3008 RMK A01 T02790139  RH  042%=      5-min Rain = 0
KWE2 210225Z 14007KT 28/14 A3008 RMK A01 T02790139  RH  042%=      5-min Rain = 0
KWE2 210226Z 14007KT 28/14 A3008 RMK A01 T02800139  RH  042%=      5-min Rain = 0
KWE2 210227Z 14008KT 28/14 A3008 RMK A01 T02800139  RH  042%=      5-min Rain = 0
KWE2 210228Z 14007KT 28/14 A3008 RMK A01 T02800139  RH  042%=      5-min Rain = 0
KWE2 210229Z 14008KT 28/14 A3008 RMK A01 T02810139  RH  042%=      5-min Rain = 0
KWE2 210230Z 14008KT 28/14 A3008 RMK A01 T02820138  RH  041%=      5-min Rain = 0
KWE2 210231Z 14007KT 28/14 A3008 RMK A01 T02820138  RH  041%=      5-min Rain = 0
KWE2 210232Z 14008KT 28/14 A3008 RMK A01 T02830138  RH  041%=      5-min Rain = 0
KWE2 210233Z 14007KT 28/14 A3008 RMK A01 T02830138  RH  041%=      5-min Rain = 0
KWE2 210234Z 14007KT 28/14 A3008 RMK A01 T02840138  RH  041%=      5-min Rain = 0
KWE2 210235Z 14007KT 28/14 A3008 RMK A01 T02830138  RH  041%=      5-min Rain = 0
KWE2 210236Z 14007KT 28/14 A3008 RMK A01 T02830138  RH  041%=      5-min Rain = 0
KWE2 210237Z 15007KT 28/14 A3008 RMK A01 T02830138  RH  041%=      5-min Rain = 0
KWE2 210238Z 15007KT 28/14 A3008 RMK A01 T02840138  RH  041%=      5-min Rain = 0
KWE2 210239Z 15007KT 28/14 A3008 RMK A01 T02840138  RH  041%=      5-min Rain = 0
KWE2 210240Z 15007KT 28/14 A3008 RMK A01 T02840139  RH  041%=      5-min Rain = 0
KWE2 210241Z 15007KT 28/14 A3008 RMK A01 T02840139  RH  041%=      5-min Rain = 0
KWE2 210242Z 14007KT 29/14 A3008 RMK A01 T02850140  RH  041%=      5-min Rain = 0
KWE2 210243Z 14007KT 28/14 A3009 RMK A01 T02840140  RH  041%=      5-min Rain = 0
KWE2 210244Z 13007KT 28/14 A3009 RMK A01 T02840140  RH  041%=      5-min Rain = 0
KWE2 210245Z 13007KT 28/14 A3009 RMK A01 T02830140  RH  041%=      5-min Rain = 0
KWE2 210246Z 13007KT 28/14 A3009 RMK A01 T02820139  RH  041%=      5-min Rain = 0
KWE2 210247Z 13006KT 28/14 A3009 RMK A01 T02820140  RH  042%=      5-min Rain = 0
KWE2 210248Z 13005KT 28/14 A3009 RMK A01 T02800139  RH  042%=      5-min Rain = 0
KWE2 210249Z 13006KT 28/14 A3009 RMK A01 T02790140  RH  042%=      5-min Rain = 0
KWE2 210250Z 13006KT 28/14 A3009 RMK A01 T02780141  RH  043%=      5-min Rain = 0
KWE2 210251Z 12005KT 28/14 A3009 RMK A01 T02770142  RH  044%=      5-min Rain = 0
KWE2 210252Z 12005KT 28/14 A3009 RMK A01 T02750142  RH  044%=      5-min Rain = 0
KWE2 210253Z 13005KT 27/14 A3009 RMK A01 T02730142  RH  045%=      5-min Rain = 0
KWE2 210254Z 13005KT 27/14 A3009 RMK A01 T02720143  RH  045%=      5-min Rain = 0
KWE2 210255Z 13005KT 27/15 A3009 RMK A01 T02710145  RH  046%=      5-min Rain = 0
KWE2 210256Z 13006KT 27/15 A3009 RMK A01 T02690145  RH  046%=      5-min Rain = 0
KWE2 210257Z 13006KT 27/15 A3009 RMK A01 T02690145  RH  047%=      5-min Rain = 0
KWE2 210258Z 13006KT 27/15 A3009 RMK A01 T02680145  RH  047%=      5-min Rain = 0
KWE2 210259Z 13006KT 27/15 A3009 RMK A01 T02670145  RH  047%=      5-min Rain = 0
KWE2 210300Z 13006KT 27/15 A3009 RMK A01 T02670146  RH  047%=      5-min Rain = 0
KWE2 210301Z 13006KT 27/15 A3009 RMK A01 T02670145  RH  047%=      5-min Rain = 0
KWE2 210302Z 13006KT 27/15 A3009 RMK A01 T02670145  RH  047%=      5-min Rain = 0
KWE2 210303Z 13006KT 27/15 A3009 RMK A01 T02670145  RH  047%=      5-min Rain = 0
KWE2 210304Z 14006KT 27/15 A3009 RMK A01 T02680146  RH  047%=      5-min Rain = 0
KWE2 210305Z 14007KT 27/15 A3009 RMK A01 T02680146  RH  047%=      5-min Rain = 0
KWE2 210306Z 14007KT 27/15 A3009 RMK A01 T02690146  RH  047%=      5-min Rain = 0
KWE2 210307Z 14007KT 27/15 A3009 RMK A01 T02700147  RH  047%=      5-min Rain = 0
KWE2 210308Z 14007KT 27/15 A3009 RMK A01 T02700147  RH  047%=      5-min Rain = 0
KWE2 210309Z 13007KT 27/15 A3009 RMK A01 T02710147  RH  047%=      5-min Rain = 0
KWE2 210310Z 13008KT 27/15 A301 RMK A01 T02710147  RH  046%=      5-min Rain = 0
KWE2 210311Z 14007KT 27/15 A301 RMK A01 T02710146  RH  046%=      5-min Rain = 0
KWE2 210312Z 13007KT 27/15 A301 RMK A01 T02720146  RH  046%=      5-min Rain = 0
KWE2 210313Z 13007KT 27/15 A301 RMK A01 T02730147  RH  046%=      5-min Rain = 0
KWE2 210314Z 13008KT 27/15 A301 RMK A01 T02720146  RH  046%=      5-min Rain = 0
KWE2 210315Z 13008KT 27/15 A301 RMK A01 T02730147  RH  046%=      5-min Rain = 0
KWE2 210316Z 13007KT 27/15 A301 RMK A01 T02730146  RH  046%=      5-min Rain = 0
KWE2 210317Z 13007KT 27/15 A301 RMK A01 T02730146  RH  046%=      5-min Rain = 0
KWE2 210318Z 13007KT 27/15 A301 RMK A01 T02740146  RH  046%=      5-min Rain = 0
KWE2 210319Z 13007KT 27/15 A301 RMK A01 T02740145  RH  045%=      5-min Rain = 0
KWE2 210320Z 13007KT 27/15 A301 RMK A01 T02740145  RH  045%=      5-min Rain = 0
KWE2 210321Z 13006KT 27/15 A301 RMK A01 T02740145  RH  045%=      5-min Rain = 0
KWE2 210322Z 13006KT 27/15 A301 RMK A01 T02740145  RH  045%=      5-min Rain = 0
KWE2 210323Z 13006KT 27/15 A301 RMK A01 T02740146  RH  045%=      5-min Rain = 0
KWE2 210324Z 13006KT 27/15 A301 RMK A01 T02730146  RH  046%=      5-min Rain = 0
KWE2 210325Z 13005KT 27/15 A301 RMK A01 T02720146  RH  046%=      5-min Rain = 0
KWE2 210326Z 13006KT 27/15 A301 RMK A01 T02710146  RH  046%=      5-min Rain = 0
KWE2 210327Z 13005KT 27/15 A301 RMK A01 T02700147  RH  047%=      5-min Rain = 0
KWE2 210328Z 13005KT 27/15 A301 RMK A01 T02690146  RH  047%=      5-min Rain = 0
KWE2 210329Z 13006KT 27/15 A301 RMK A01 T02680147  RH  047%=      5-min Rain = 0
KWE2 210330Z 14006KT 27/15 A301 RMK A01 T02670147  RH  048%=      5-min Rain = 0
KWE2 210331Z 14006KT 27/15 A301 RMK A01 T02660147  RH  048%=      5-min Rain = 0
KWE2 210332Z 14006KT 27/15 A301 RMK A01 T02650147  RH  048%=      5-min Rain = 0
KWE2 210333Z 14006KT 26/15 A301 RMK A01 T02640147  RH  049%=      5-min Rain = 0
KWE2 210334Z 14006KT 26/15 A301 RMK A01 T02630147  RH  049%=      5-min Rain = 0
KWE2 210335Z 14006KT 26/15 A301 RMK A01 T02630148  RH  049%=      5-min Rain = 0
KWE2 210336Z 14006KT 26/15 A301 RMK A01 T02620148  RH  049%=      5-min Rain = 0
KWE2 210337Z 14006KT 26/15 A301 RMK A01 T02610147  RH  049%=      5-min Rain = 0
KWE2 210338Z 14006KT 26/15 A301 RMK A01 T02610147  RH  050%=      5-min Rain = 0
KWE2 210339Z 13007KT 26/15 A301 RMK A01 T02600147  RH  050%=      5-min Rain = 0
KWE2 210340Z 13007KT 26/15 A301 RMK A01 T02600147  RH  050%=      5-min Rain = 0
KWE2 210341Z 13007KT 26/15 A301 RMK A01 T02600148  RH  050%=      5-min Rain = 0
KWE2 210342Z 14007KT 26/15 A301 RMK A01 T02600148  RH  050%=      5-min Rain = 0
KWE2 210343Z 13007KT 26/15 A301 RMK A01 T02600148  RH  050%=      5-min Rain = 0
KWE2 210344Z 13007KT 26/15 A301 RMK A01 T02600147  RH  050%=      5-min Rain = 0
KWE2 210345Z 13008KT 26/15 A301 RMK A01 T02600147  RH  050%=      5-min Rain = 0
KWE2 210346Z 13007KT 26/15 A301 RMK A01 T02600147  RH  050%=      5-min Rain = 0
KWE2 210347Z 13008KT 26/15 A301 RMK A01 T02600148  RH  050%=      5-min Rain = 0
KWE2 210348Z 14008KT 26/15 A301 RMK A01 T02600148  RH  050%=      5-min Rain = 0
KWE2 210349Z 14008KT 26/15 A301 RMK A01 T02600148  RH  050%=      5-min Rain = 0
KWE2 210350Z 14008KT 26/15 A301 RMK A01 T02600148  RH  050%=      5-min Rain = 0
KWE2 210351Z 14008KT 26/15 A301 RMK A01 T02600148  RH  050%=      5-min Rain = 0
KWE2 210352Z 13008KT 26/15 A301 RMK A01 T02600148  RH  050%=      5-min Rain = 0
KWE2 210353Z 13007KT 26/15 A301 RMK A01 T02600148  RH  050%=      5-min Rain = 0
KWE2 210354Z 13008KT 26/15 A301 RMK A01 T02590148  RH  050%=      5-min Rain = 0
KWE2 210355Z 14008KT 26/15 A301 RMK A01 T02600148  RH  050%=      5-min Rain = 0
KWE2 210356Z 13007KT 26/15 A301 RMK A01 T02600148  RH  050%=      5-min Rain = 0
KWE2 210357Z 14008KT 26/15 A301 RMK A01 T02590148  RH  050%=      5-min Rain = 0
KWE2 210358Z 13007KT 26/15 A301 RMK A01 T02590148  RH  050%=      5-min Rain = 0
KWE2 210359Z 14007KT 26/15 A301 RMK A01 T02600148  RH  050%=      5-min Rain = 0
KWE2 210400Z 14007KT 26/15 A301 RMK A01 T02600148  RH  050%=      5-min Rain = 0
KWE2 210401Z 14007KT 26/15 A301 RMK A01 T02600148  RH  050%=      5-min Rain = 0
KWE2 210402Z 14007KT 26/15 A301 RMK A01 T02600148  RH  050%=      5-min Rain = 0
KWE2 210403Z 14008KT 26/15 A301 RMK A01 T02600148  RH  050%=      5-min Rain = 0
KWE2 210404Z 14007KT 26/15 A301 RMK A01 T02600147  RH  050%=      5-min Rain = 0
KWE2 210405Z 14008KT 26/15 A301 RMK A01 T02600147  RH  050%=      5-min Rain = 0
KWE2 210406Z 14008KT 26/15 A301 RMK A01 T02600146  RH  049%=      5-min Rain = 0
KWE2 210407Z 14008KT 26/15 A301 RMK A01 T02610146  RH  049%=      5-min Rain = 0
KWE2 210408Z 14008KT 26/15 A301 RMK A01 T02610146  RH  049%=      5-min Rain = 0
KWE2 210409Z 14007KT 26/15 A301 RMK A01 T02620146  RH  049%=      5-min Rain = 0
KWE2 210410Z 14007KT 26/15 A301 RMK A01 T02620146  RH  049%=      5-min Rain = 0
KWE2 210411Z 14008KT 26/15 A301 RMK A01 T02620146  RH  049%=      5-min Rain = 0
KWE2 210412Z 14008KT 26/15 A301 RMK A01 T02620145  RH  049%=      5-min Rain = 0
KWE2 210413Z 14007KT 26/15 A301 RMK A01 T02630146  RH  048%=      5-min Rain = 0
KWE2 210414Z 14008KT 26/15 A301 RMK A01 T02630146  RH  048%=      5-min Rain = 0
KWE2 210415Z 14008KT 26/15 A301 RMK A01 T02630146  RH  048%=      5-min Rain = 0
KWE2 210416Z 14008KT 26/15 A301 RMK A01 T02630146  RH  048%=      5-min Rain = 0
KWE2 210417Z 14008KT 26/15 A301 RMK A01 T02630145  RH  048%=      5-min Rain = 0
KWE2 210418Z 14008KT 26/15 A301 RMK A01 T02630145  RH  048%=      5-min Rain = 0
KWE2 210419Z 14007KT 26/15 A301 RMK A01 T02640145  RH  048%=      5-min Rain = 0
KWE2 210420Z 14008KT 26/15 A301 RMK A01 T02640145  RH  048%=      5-min Rain = 0
KWE2 210421Z 14008KT 26/15 A301 RMK A01 T02640146  RH  048%=      5-min Rain = 0
KWE2 210422Z 14007KT 26/15 A301 RMK A01 T02640145  RH  048%=      5-min Rain = 0
KWE2 210423Z 14007KT 26/15 A301 RMK A01 T02640146  RH  048%=      5-min Rain = 0
KWE2 210424Z 14007KT 26/15 A301 RMK A01 T02630145  RH  048%=      5-min Rain = 0
KWE2 210425Z 14008KT 26/15 A301 RMK A01 T02630145  RH  048%=      5-min Rain = 0
KWE2 210426Z 14007KT 26/15 A301 RMK A01 T02630145  RH  048%=      5-min Rain = 0
KWE2 210427Z 14007KT 26/15 A301 RMK A01 T02630146  RH  048%=      5-min Rain = 0
KWE2 210428Z 14007KT 26/15 A301 RMK A01 T02630146  RH  048%=      5-min Rain = 0
KWE2 210429Z 14007KT 26/15 A301 RMK A01 T02630145  RH  048%=      5-min Rain = 0
KWE2 210430Z 14008KT 26/15 A301 RMK A01 T02630145  RH  048%=      5-min Rain = 0
KWE2 210431Z 14008KT 26/15 A301 RMK A01 T02630145  RH  048%=      5-min Rain = 0
KWE2 210432Z 14007KT 26/15 A301 RMK A01 T02630145  RH  048%=      5-min Rain = 0
KWE2 210433Z 14007KT 26/15 A301 RMK A01 T02630145  RH  048%=      5-min Rain = 0
KWE2 210434Z 14008KT 26/15 A301 RMK A01 T02630145  RH  048%=      5-min Rain = 0
KWE2 210435Z 14007KT 26/15 A301 RMK A01 T02630145  RH  048%=      5-min Rain = 0
KWE2 210436Z 14007KT 26/15 A301 RMK A01 T02630145  RH  048%=      5-min Rain = 0
KWE2 210437Z 14007KT 26/15 A301 RMK A01 T02620146  RH  049%=      5-min Rain = 0
KWE2 210438Z 14007KT 26/15 A301 RMK A01 T02620146  RH  049%=      5-min Rain = 0
KWE2 210439Z 14007KT 26/15 A301 RMK A01 T02610145  RH  049%=      5-min Rain = 0
KWE2 210440Z 14008KT 26/15 A301 RMK A01 T02610145  RH  049%=      5-min Rain = 0
KWE2 210441Z 14008KT 26/15 A301 RMK A01 T02610145  RH  049%=      5-min Rain = 0
KWE2 210442Z 14008KT 26/15 A301 RMK A01 T02610145  RH  049%=      5-min Rain = 0
KWE2 210443Z 15008KT 26/15 A301 RMK A01 T02610145  RH  049%=      5-min Rain = 0
KWE2 210444Z 14008KT 26/15 A301 RMK A01 T02610145  RH  049%=      5-min Rain = 0
KWE2 210445Z 14008KT 26/15 A301 RMK A01 T02610146  RH  049%=      5-min Rain = 0
KWE2 210446Z 14008KT 26/15 A301 RMK A01 T02610146  RH  049%=      5-min Rain = 0
KWE2 210447Z 14008KT 26/15 A301 RMK A01 T02610146  RH  049%=      5-min Rain = 0
KWE2 210448Z 14007KT 26/15 A301 RMK A01 T02610146  RH  049%=      5-min Rain = 0
KWE2 210449Z 14008KT 26/15 A301 RMK A01 T02610146  RH  049%=      5-min Rain = 0
KWE2 210450Z 14008KT 26/15 A301 RMK A01 T02610146  RH  049%=      5-min Rain = 0
KWE2 210451Z 14008KT 26/15 A301 RMK A01 T02610146  RH  049%=      5-min Rain = 0
KWE2 210452Z 14007KT 26/15 A301 RMK A01 T02600146  RH  049%=      5-min Rain = 0
KWE2 210453Z 14007KT 26/15 A301 RMK A01 T02600146  RH  049%=      5-min Rain = 0
KWE2 210454Z 14007KT 26/15 A301 RMK A01 T02600146  RH  049%=      5-min Rain = 0
KWE2 210455Z 14007KT 26/15 A301 RMK A01 T02590146  RH  050%=      5-min Rain = 0
KWE2 210456Z 14007KT 26/15 A301 RMK A01 T02590146  RH  050%=      5-min Rain = 0
KWE2 210457Z 14007KT 26/15 A301 RMK A01 T02580146  RH  050%=      5-min Rain = 0
KWE2 210458Z 14007KT 26/15 A301 RMK A01 T02580146  RH  050%=      5-min Rain = 0
KWE2 210459Z 14007KT 26/15 A301 RMK A01 T02570146  RH  050%=      5-min Rain = 0

Page generated in 0.1223 seconds.